<?xml version="1.0" encoding="UTF-8" standalone="no" ?><gpx xmlns="http://www.topografix.com/GPX/1/1" xmlns:gpxx="http://www.garmin.com/xmlschemas/GpxExtensions/v3" xmlns:wptx1="http://www.garmin.com/xmlschemas/WaypointExtension/v1" xmlns:gpxtpx="http://www.garmin.com/xmlschemas/TrackPointExtension/v1" creator="Dakota 20" version="1.1" xmlns:xsi="http://www.w3.org/2001/XMLSchema-instance" xsi:schemaLocation="http://www.topografix.com/GPX/1/1 http://www.topografix.com/GPX/1/1/gpx.xsd http://www.garmin.com/xmlschemas/GpxExtensions/v3 http://www8.garmin.com/xmlschemas/GpxExtensionsv3.xsd http://www.garmin.com/xmlschemas/WaypointExtension/v1 http://www8.garmin.com/xmlschemas/WaypointExtensionv1.xsd http://www.garmin.com/xmlschemas/TrackPointExtension/v1 http://www.garmin.com/xmlschemas/TrackPointExtensionv1.xsd"><metadata><link href="http://www.garmin.com"><text>Garmin International</text></link><time>2013-06-21T15:44:55Z</time></metadata><trk><name>BETANZOS COIROS CHELO BETANZOS</name><extensions><gpxx:TrackExtension><gpxx:DisplayColor>Green</gpxx:DisplayColor></gpxx:TrackExtension></extensions><trkseg><trkpt lat="43.2769825403" lon="-8.2071511354"><ele>-46.97</ele><time>2013-06-21T08:24:56Z</time></trkpt><trkpt lat="43.2771474123" lon="-8.2071676478"><ele>-42.64</ele><time>2013-06-21T08:25:07Z</time></trkpt><trkpt lat="43.2771500107" lon="-8.2071767841"><ele>-38.80</ele><time>2013-06-21T08:25:08Z</time></trkpt><trkpt lat="43.2771500107" lon="-8.2071866747"><ele>-35.43</ele><time>2013-06-21T08:25:09Z</time></trkpt><trkpt lat="43.2771521900" lon="-8.2071970683"><ele>-32.07</ele><time>2013-06-21T08:25:10Z</time></trkpt><trkpt lat="43.2771520223" lon="-8.2072043605"><ele>-28.70</ele><time>2013-06-21T08:25:11Z</time></trkpt><trkpt lat="43.2771542855" lon="-8.2072104793"><ele>-25.82</ele><time>2013-06-21T08:25:12Z</time></trkpt><trkpt lat="43.2771578059" lon="-8.2072147541"><ele>-22.45</ele><time>2013-06-21T08:25:13Z</time></trkpt><trkpt lat="43.2771646790" lon="-8.2072259858"><ele>-16.69</ele><time>2013-06-21T08:25:15Z</time></trkpt><trkpt lat="43.2771656848" lon="-8.2072331104"><ele>-10.92</ele><time>2013-06-21T08:25:17Z</time></trkpt><trkpt lat="43.2771685347" lon="-8.2072314341"><ele>-6.11</ele><time>2013-06-21T08:25:19Z</time></trkpt><trkpt lat="43.2771675289" lon="-8.2072354574"><ele>-0.82</ele><time>2013-06-21T08:25:21Z</time></trkpt><trkpt lat="43.2771749888" lon="-8.2072387263"><ele>3.98</ele><time>2013-06-21T08:25:23Z</time></trkpt><trkpt lat="43.2771813590" lon="-8.2072383072"><ele>8.31</ele><time>2013-06-21T08:25:25Z</time></trkpt><trkpt lat="43.2771810237" lon="-8.2072309311"><ele>12.15</ele><time>2013-06-21T08:25:27Z</time></trkpt><trkpt lat="43.2771770004" lon="-8.2072195318"><ele>16.00</ele><time>2013-06-21T08:25:29Z</time></trkpt><trkpt lat="43.2771625835" lon="-8.2072068751"><ele>19.36</ele><time>2013-06-21T08:25:31Z</time></trkpt><trkpt lat="43.2771595661" lon="-8.2072015945"><ele>22.73</ele><time>2013-06-21T08:25:33Z</time></trkpt><trkpt lat="43.2771512680" lon="-8.2071972359"><ele>27.05</ele><time>2013-06-21T08:25:36Z</time></trkpt><trkpt lat="43.2771599852" lon="-8.2071818970"><ele>31.38</ele><time>2013-06-21T08:25:39Z</time></trkpt><trkpt lat="43.2771656848" lon="-8.2071658876"><ele>34.26</ele><time>2013-06-21T08:25:42Z</time></trkpt><trkpt lat="43.2771760784" lon="-8.2071412448"><ele>37.63</ele><time>2013-06-21T08:25:46Z</time></trkpt><trkpt lat="43.2771799341" lon="-8.2071281690"><ele>40.99</ele><time>2013-06-21T08:25:50Z</time></trkpt><trkpt lat="43.2771791797" lon="-8.2071133330"><ele>43.88</ele><time>2013-06-21T08:25:53Z</time></trkpt><trkpt lat="43.2771865558" lon="-8.2070846669"><ele>46.28</ele><time>2013-06-21T08:25:59Z</time></trkpt><trkpt lat="43.2771871425" lon="-8.2070768718"><ele>47.24</ele><time>2013-06-21T08:26:27Z</time></trkpt><trkpt lat="43.2771869749" lon="-8.2070938032"><ele>46.76</ele><time>2013-06-21T08:26:52Z</time></trkpt><trkpt lat="43.2771869749" lon="-8.2070938032"><ele>47.72</ele><time>2013-06-21T08:27:08Z</time></trkpt><trkpt lat="43.2771984581" lon="-8.2071140874"><ele>46.76</ele><time>2013-06-21T08:27:40Z</time></trkpt><trkpt lat="43.2771984581" lon="-8.2071140874"><ele>46.76</ele><time>2013-06-21T08:28:09Z</time></trkpt><trkpt lat="43.2772009727" lon="-8.2071242295"><ele>46.76</ele><time>2013-06-21T08:28:42Z</time></trkpt><trkpt lat="43.2772009727" lon="-8.2071242295"><ele>42.92</ele><time>2013-06-21T08:28:46Z</time></trkpt><trkpt lat="43.2772009727" lon="-8.2071242295"><ele>47.24</ele><time>2013-06-21T08:28:47Z</time></trkpt><trkpt lat="43.2772029843" lon="-8.2071231399"><ele>46.76</ele><time>2013-06-21T08:29:14Z</time></trkpt><trkpt lat="43.2772032358" lon="-8.2071274985"><ele>46.76</ele><time>2013-06-21T08:29:29Z</time></trkpt><trkpt lat="43.2772018109" lon="-8.2071344554"><ele>46.76</ele><time>2013-06-21T08:30:01Z</time></trkpt><trkpt lat="43.2772018109" lon="-8.2071344554"><ele>45.80</ele><time>2013-06-21T08:30:33Z</time></trkpt><trkpt lat="43.2772018109" lon="-8.2071344554"><ele>49.16</ele><time>2013-06-21T08:30:34Z</time></trkpt><trkpt lat="43.2772035711" lon="-8.2071404904"><ele>45.32</ele><time>2013-06-21T08:30:42Z</time></trkpt><trkpt lat="43.2772035711" lon="-8.2071404904"><ele>46.76</ele><time>2013-06-21T08:30:57Z</time></trkpt><trkpt lat="43.2771917526" lon="-8.2071601879"><ele>46.76</ele><time>2013-06-21T08:31:27Z</time></trkpt><trkpt lat="43.2771917526" lon="-8.2071601879"><ele>46.76</ele><time>2013-06-21T08:31:56Z</time></trkpt><trkpt lat="43.2771915011" lon="-8.2071687374"><ele>48.20</ele><time>2013-06-21T08:32:21Z</time></trkpt><trkpt lat="43.2771915011" lon="-8.2071687374"><ele>45.80</ele><time>2013-06-21T08:32:25Z</time></trkpt><trkpt lat="43.2771888189" lon="-8.2071760297"><ele>46.28</ele><time>2013-06-21T08:33:01Z</time></trkpt><trkpt lat="43.2771827001" lon="-8.2072015107"><ele>46.76</ele><time>2013-06-21T08:33:36Z</time></trkpt><trkpt lat="43.2771821134" lon="-8.2072114013"><ele>46.28</ele><time>2013-06-21T08:34:04Z</time></trkpt><trkpt lat="43.2771917526" lon="-8.2072460186"><ele>46.76</ele><time>2013-06-21T08:34:06Z</time></trkpt><trkpt lat="43.2773320656" lon="-8.2074223738"><ele>47.24</ele><time>2013-06-21T08:34:17Z</time></trkpt><trkpt lat="43.2774655893" lon="-8.2076470088"><ele>47.24</ele><time>2013-06-21T08:34:27Z</time></trkpt><trkpt lat="43.2774593029" lon="-8.2077449933"><ele>48.20</ele><time>2013-06-21T08:34:33Z</time></trkpt><trkpt lat="43.2774240989" lon="-8.2077548001"><ele>48.20</ele><time>2013-06-21T08:34:35Z</time></trkpt><trkpt lat="43.2771884836" lon="-8.2077791076"><ele>50.13</ele><time>2013-06-21T08:34:48Z</time></trkpt><trkpt lat="43.2771697920" lon="-8.2077830471"><ele>50.13</ele><time>2013-06-21T08:34:49Z</time></trkpt><trkpt lat="43.2770564687" lon="-8.2077646069"><ele>51.09</ele><time>2013-06-21T08:34:55Z</time></trkpt><trkpt lat="43.2769117970" lon="-8.2077223621"><ele>52.05</ele><time>2013-06-21T08:35:04Z</time></trkpt><trkpt lat="43.2768516149" lon="-8.2077095378"><ele>52.53</ele><time>2013-06-21T08:35:08Z</time></trkpt><trkpt lat="43.2766734995" lon="-8.2077049278"><ele>53.97</ele><time>2013-06-21T08:35:19Z</time></trkpt><trkpt lat="43.2764416561" lon="-8.2077781856"><ele>55.41</ele><time>2013-06-21T08:35:32Z</time></trkpt><trkpt lat="43.2763155922" lon="-8.2077253796"><ele>56.37</ele><time>2013-06-21T08:35:40Z</time></trkpt><trkpt lat="43.2762216311" lon="-8.2076618448"><ele>57.82</ele><time>2013-06-21T08:35:47Z</time></trkpt><trkpt lat="43.2760586031" lon="-8.2075634412"><ele>59.74</ele><time>2013-06-21T08:35:58Z</time></trkpt><trkpt lat="43.2760053780" lon="-8.2075371221"><ele>60.70</ele><time>2013-06-21T08:36:02Z</time></trkpt><trkpt lat="43.2759672403" lon="-8.2074596733"><ele>62.14</ele><time>2013-06-21T08:36:07Z</time></trkpt><trkpt lat="43.2759188768" lon="-8.2074508723"><ele>62.62</ele><time>2013-06-21T08:36:10Z</time></trkpt><trkpt lat="43.2758912165" lon="-8.2075497787"><ele>63.58</ele><time>2013-06-21T08:36:15Z</time></trkpt><trkpt lat="43.2758520730" lon="-8.2077796943"><ele>64.55</ele><time>2013-06-21T08:36:26Z</time></trkpt><trkpt lat="43.2758008596" lon="-8.2078298181"><ele>65.03</ele><time>2013-06-21T08:36:29Z</time></trkpt><trkpt lat="43.2756457943" lon="-8.2078796066"><ele>65.99</ele><time>2013-06-21T08:36:39Z</time></trkpt><trkpt lat="43.2757151127" lon="-8.2082022261"><ele>64.55</ele><time>2013-06-21T08:36:50Z</time></trkpt><trkpt lat="43.2758024521" lon="-8.2083322294"><ele>65.03</ele><time>2013-06-21T08:36:53Z</time></trkpt><trkpt lat="43.2758256700" lon="-8.2085260190"><ele>64.07</ele><time>2013-06-21T08:36:58Z</time></trkpt><trkpt lat="43.2757154480" lon="-8.2085935771"><ele>63.58</ele><time>2013-06-21T08:37:02Z</time></trkpt><trkpt lat="43.2754284516" lon="-8.2087931503"><ele>63.58</ele><time>2013-06-21T08:37:14Z</time></trkpt><trkpt lat="43.2754214946" lon="-8.2087930664"><ele>63.58</ele><time>2013-06-21T08:37:15Z</time></trkpt><trkpt lat="43.2753142063" lon="-8.2087241672"><ele>63.58</ele><time>2013-06-21T08:37:28Z</time></trkpt><trkpt lat="43.2755248435" lon="-8.2090103254"><ele>63.10</ele><time>2013-06-21T08:37:40Z</time></trkpt><trkpt lat="43.2758530788" lon="-8.2094831485"><ele>62.62</ele><time>2013-06-21T08:37:56Z</time></trkpt><trkpt lat="43.2761133369" lon="-8.2099581510"><ele>61.18</ele><time>2013-06-21T08:38:08Z</time></trkpt><trkpt lat="43.2761803083" lon="-8.2101255376"><ele>61.66</ele><time>2013-06-21T08:38:13Z</time></trkpt><trkpt lat="43.2760238182" lon="-8.2102862187"><ele>62.14</ele><time>2013-06-21T08:38:22Z</time></trkpt><trkpt lat="43.2759677432" lon="-8.2103006355"><ele>62.14</ele><time>2013-06-21T08:38:24Z</time></trkpt><trkpt lat="43.2756103389" lon="-8.2102037407"><ele>58.78</ele><time>2013-06-21T08:38:35Z</time></trkpt><trkpt lat="43.2755525876" lon="-8.2101647649"><ele>58.30</ele><time>2013-06-21T08:38:37Z</time></trkpt><trkpt lat="43.2754189800" lon="-8.2100823708"><ele>55.89</ele><time>2013-06-21T08:38:41Z</time></trkpt><trkpt lat="43.2751118671" lon="-8.2097750902"><ele>52.53</ele><time>2013-06-21T08:38:49Z</time></trkpt><trkpt lat="43.2750737295" lon="-8.2097287383"><ele>52.05</ele><time>2013-06-21T08:38:50Z</time></trkpt><trkpt lat="43.2749682013" lon="-8.2094324380"><ele>51.09</ele><time>2013-06-21T08:38:55Z</time></trkpt><trkpt lat="43.2747008186" lon="-8.2091711741"><ele>51.09</ele><time>2013-06-21T08:39:03Z</time></trkpt><trkpt lat="43.2743042707" lon="-8.2091319468"><ele>53.01</ele><time>2013-06-21T08:39:15Z</time></trkpt><trkpt lat="43.2740881853" lon="-8.2090136781"><ele>56.37</ele><time>2013-06-21T08:39:23Z</time></trkpt><trkpt lat="43.2737922203" lon="-8.2089438569"><ele>58.78</ele><time>2013-06-21T08:39:35Z</time></trkpt><trkpt lat="43.2735483069" lon="-8.2089304458"><ele>56.37</ele><time>2013-06-21T08:39:42Z</time></trkpt><trkpt lat="43.2733240910" lon="-8.2089249976"><ele>52.53</ele><time>2013-06-21T08:39:46Z</time></trkpt><trkpt lat="43.2731395215" lon="-8.2089207228"><ele>50.61</ele><time>2013-06-21T08:39:50Z</time></trkpt><trkpt lat="43.2730277907" lon="-8.2089150231"><ele>48.68</ele><time>2013-06-21T08:39:52Z</time></trkpt><trkpt lat="43.2728018984" lon="-8.2087612152"><ele>46.76</ele><time>2013-06-21T08:39:56Z</time></trkpt><trkpt lat="43.2725717314" lon="-8.2083921600"><ele>49.65</ele><time>2013-06-21T08:40:06Z</time></trkpt><trkpt lat="43.2724356931" lon="-8.2081886474"><ele>53.01</ele><time>2013-06-21T08:40:19Z</time></trkpt><trkpt lat="43.2724844757" lon="-8.2082704548"><ele>52.05</ele><time>2013-06-21T08:40:23Z</time></trkpt><trkpt lat="43.2726729009" lon="-8.2085398491"><ele>47.72</ele><time>2013-06-21T08:40:28Z</time></trkpt><trkpt lat="43.2727600727" lon="-8.2086850237"><ele>46.76</ele><time>2013-06-21T08:40:30Z</time></trkpt><trkpt lat="43.2728040777" lon="-8.2087614667"><ele>46.28</ele><time>2013-06-21T08:40:31Z</time></trkpt><trkpt lat="43.2730230968" lon="-8.2089063060"><ele>46.28</ele><time>2013-06-21T08:40:35Z</time></trkpt><trkpt lat="43.2731609792" lon="-8.2089529932"><ele>50.13</ele><time>2013-06-21T08:40:41Z</time></trkpt><trkpt lat="43.2731586322" lon="-8.2090070564"><ele>50.61</ele><time>2013-06-21T08:40:43Z</time></trkpt><trkpt lat="43.2731205784" lon="-8.2091719285"><ele>50.13</ele><time>2013-06-21T08:40:48Z</time></trkpt><trkpt lat="43.2728605717" lon="-8.2094590086"><ele>48.20</ele><time>2013-06-21T08:40:58Z</time></trkpt><trkpt lat="43.2728313189" lon="-8.2094633672"><ele>47.72</ele><time>2013-06-21T08:40:59Z</time></trkpt><trkpt lat="43.2727196719" lon="-8.2092448510"><ele>45.32</ele><time>2013-06-21T08:41:04Z</time></trkpt><trkpt lat="43.2725465856" lon="-8.2088669110"><ele>41.95</ele><time>2013-06-21T08:41:09Z</time></trkpt><trkpt lat="43.2724285685" lon="-8.2088601217"><ele>40.51</ele><time>2013-06-21T08:41:14Z</time></trkpt><trkpt lat="43.2722156681" lon="-8.2088871952"><ele>37.15</ele><time>2013-06-21T08:41:19Z</time></trkpt><trkpt lat="43.2719373051" lon="-8.2088849321"><ele>31.86</ele><time>2013-06-21T08:41:23Z</time></trkpt><trkpt lat="43.2713542599" lon="-8.2087755483"><ele>28.02</ele><time>2013-06-21T08:41:30Z</time></trkpt><trkpt lat="43.2711051498" lon="-8.2087680884"><ele>27.53</ele><time>2013-06-21T08:41:33Z</time></trkpt><trkpt lat="43.2703164127" lon="-8.2090498041"><ele>26.57</ele><time>2013-06-21T08:41:45Z</time></trkpt><trkpt lat="43.2698674779" lon="-8.2093469426"><ele>27.05</ele><time>2013-06-21T08:41:55Z</time></trkpt><trkpt lat="43.2696507219" lon="-8.2094854955"><ele>27.53</ele><time>2013-06-21T08:42:01Z</time></trkpt><trkpt lat="43.2694372348" lon="-8.2094837353"><ele>27.05</ele><time>2013-06-21T08:42:06Z</time></trkpt><trkpt lat="43.2690823451" lon="-8.2092885207"><ele>24.65</ele><time>2013-06-21T08:42:17Z</time></trkpt><trkpt lat="43.2688288763" lon="-8.2089004386"><ele>24.65</ele><time>2013-06-21T08:42:27Z</time></trkpt><trkpt lat="43.2687751483" lon="-8.2088177931"><ele>24.65</ele><time>2013-06-21T08:42:30Z</time></trkpt><trkpt lat="43.2686409540" lon="-8.2088084053"><ele>26.57</ele><time>2013-06-21T08:42:36Z</time></trkpt><trkpt lat="43.2686236035" lon="-8.2088088244"><ele>26.57</ele><time>2013-06-21T08:42:37Z</time></trkpt><trkpt lat="43.2685405388" lon="-8.2088207267"><ele>26.09</ele><time>2013-06-21T08:42:41Z</time></trkpt><trkpt lat="43.2684056740" lon="-8.2087974250"><ele>24.65</ele><time>2013-06-21T08:42:44Z</time></trkpt><trkpt lat="43.2680771872" lon="-8.2087907195"><ele>25.61</ele><time>2013-06-21T08:42:54Z</time></trkpt><trkpt lat="43.2680750918" lon="-8.2086696010"><ele>26.09</ele><time>2013-06-21T08:42:59Z</time></trkpt><trkpt lat="43.2681329269" lon="-8.2082840335"><ele>26.57</ele><time>2013-06-21T08:43:11Z</time></trkpt><trkpt lat="43.2681415603" lon="-8.2081949338"><ele>27.05</ele><time>2013-06-21T08:43:14Z</time></trkpt><trkpt lat="43.2681396324" lon="-8.2081092708"><ele>27.05</ele><time>2013-06-21T08:43:17Z</time></trkpt><trkpt lat="43.2681541331" lon="-8.2080004737"><ele>27.53</ele><time>2013-06-21T08:43:21Z</time></trkpt><trkpt lat="43.2681532111" lon="-8.2078117132"><ele>28.50</ele><time>2013-06-21T08:43:27Z</time></trkpt><trkpt lat="43.2682138961" lon="-8.2075614296"><ele>27.05</ele><time>2013-06-21T08:43:33Z</time></trkpt><trkpt lat="43.2681367826" lon="-8.2070894446"><ele>28.02</ele><time>2013-06-21T08:43:43Z</time></trkpt><trkpt lat="43.2681152411" lon="-8.2066353969"><ele>27.53</ele><time>2013-06-21T08:43:54Z</time></trkpt><trkpt lat="43.2681132294" lon="-8.2064065710"><ele>28.98</ele><time>2013-06-21T08:44:00Z</time></trkpt><trkpt lat="43.2681185100" lon="-8.2062227558"><ele>30.90</ele><time>2013-06-21T08:44:07Z</time></trkpt><trkpt lat="43.2680693921" lon="-8.2060206681"><ele>29.94</ele><time>2013-06-21T08:44:13Z</time></trkpt><trkpt lat="43.2678690646" lon="-8.2058426365"><ele>27.53</ele><time>2013-06-21T08:44:18Z</time></trkpt><trkpt lat="43.2677633688" lon="-8.2058093604"><ele>27.53</ele><time>2013-06-21T08:44:20Z</time></trkpt><trkpt lat="43.2673467044" lon="-8.2053766865"><ele>27.53</ele><time>2013-06-21T08:44:32Z</time></trkpt><trkpt lat="43.2670314610" lon="-8.2048619539"><ele>27.05</ele><time>2013-06-21T08:44:43Z</time></trkpt><trkpt lat="43.2664975338" lon="-8.2046147715"><ele>27.05</ele><time>2013-06-21T08:44:57Z</time></trkpt><trkpt lat="43.2660340983" lon="-8.2048176136"><ele>27.53</ele><time>2013-06-21T08:45:10Z</time></trkpt><trkpt lat="43.2659996487" lon="-8.2048091479"><ele>27.53</ele><time>2013-06-21T08:45:11Z</time></trkpt><trkpt lat="43.2655197848" lon="-8.2043400127"><ele>28.02</ele><time>2013-06-21T08:45:26Z</time></trkpt><trkpt lat="43.2654425036" lon="-8.2038985379"><ele>28.50</ele><time>2013-06-21T08:45:35Z</time></trkpt><trkpt lat="43.2654511370" lon="-8.2034133095"><ele>29.94</ele><time>2013-06-21T08:45:45Z</time></trkpt><trkpt lat="43.2654835749" lon="-8.2028007600"><ele>32.34</ele><time>2013-06-21T08:45:58Z</time></trkpt><trkpt lat="43.2654065453" lon="-8.2022009511"><ele>32.82</ele><time>2013-06-21T08:46:11Z</time></trkpt><trkpt lat="43.2653256599" lon="-8.2020185608"><ele>32.34</ele><time>2013-06-21T08:46:15Z</time></trkpt><trkpt lat="43.2648688462" lon="-8.2012736611"><ele>29.94</ele><time>2013-06-21T08:46:29Z</time></trkpt><trkpt lat="43.2647123560" lon="-8.2011912670"><ele>29.94</ele><time>2013-06-21T08:46:35Z</time></trkpt><trkpt lat="43.2645280380" lon="-8.2009899337"><ele>32.82</ele><time>2013-06-21T08:46:48Z</time></trkpt><trkpt lat="43.2644945104" lon="-8.2007264066"><ele>35.71</ele><time>2013-06-21T08:47:01Z</time></trkpt><trkpt lat="43.2645676006" lon="-8.2005432621"><ele>38.59</ele><time>2013-06-21T08:47:12Z</time></trkpt><trkpt lat="43.2645720430" lon="-8.2005242351"><ele>39.07</ele><time>2013-06-21T08:47:13Z</time></trkpt><trkpt lat="43.2645044010" lon="-8.2004627120"><ele>40.99</ele><time>2013-06-21T08:47:23Z</time></trkpt><trkpt lat="43.2644546963" lon="-8.2004693337"><ele>40.99</ele><time>2013-06-21T08:47:26Z</time></trkpt><trkpt lat="43.2643060852" lon="-8.2004775479"><ele>40.99</ele><time>2013-06-21T08:47:33Z</time></trkpt><trkpt lat="43.2642344199" lon="-8.2001799066"><ele>40.03</ele><time>2013-06-21T08:47:43Z</time></trkpt><trkpt lat="43.2643992919" lon="-8.1995479949"><ele>38.59</ele><time>2013-06-21T08:47:54Z</time></trkpt><trkpt lat="43.2644446380" lon="-8.1992897484"><ele>36.67</ele><time>2013-06-21T08:47:58Z</time></trkpt><trkpt lat="43.2644570433" lon="-8.1991802808"><ele>36.19</ele><time>2013-06-21T08:48:00Z</time></trkpt><trkpt lat="43.2643698715" lon="-8.1990084518"><ele>34.26</ele><time>2013-06-21T08:48:07Z</time></trkpt><trkpt lat="43.2643386908" lon="-8.1989895925"><ele>34.26</ele><time>2013-06-21T08:48:09Z</time></trkpt><trkpt lat="43.2642531116" lon="-8.1989477668"><ele>33.30</ele><time>2013-06-21T08:48:13Z</time></trkpt><trkpt lat="43.2642182428" lon="-8.1988730002"><ele>35.23</ele><time>2013-06-21T08:48:17Z</time></trkpt><trkpt lat="43.2642359287" lon="-8.1986295898"><ele>37.63</ele><time>2013-06-21T08:48:30Z</time></trkpt><trkpt lat="43.2642621640" lon="-8.1985293422"><ele>38.59</ele><time>2013-06-21T08:48:36Z</time></trkpt><trkpt lat="43.2642783411" lon="-8.1984425895"><ele>40.03</ele><time>2013-06-21T08:48:42Z</time></trkpt><trkpt lat="43.2643463183" lon="-8.1983208004"><ele>40.99</ele><time>2013-06-21T08:48:50Z</time></trkpt><trkpt lat="43.2643705420" lon="-8.1982497219"><ele>41.95</ele><time>2013-06-21T08:48:55Z</time></trkpt><trkpt lat="43.2644425426" lon="-8.1981912162"><ele>41.95</ele><time>2013-06-21T08:48:59Z</time></trkpt><trkpt lat="43.2645404432" lon="-8.1980393361"><ele>41.95</ele><time>2013-06-21T08:49:08Z</time></trkpt><trkpt lat="43.2646942511" lon="-8.1979379151"><ele>40.03</ele><time>2013-06-21T08:49:14Z</time></trkpt><trkpt lat="43.2648070715" lon="-8.1978868693"><ele>39.07</ele><time>2013-06-21T08:49:17Z</time></trkpt><trkpt lat="43.2648502383" lon="-8.1978716981"><ele>38.59</ele><time>2013-06-21T08:49:19Z</time></trkpt><trkpt lat="43.2650623843" lon="-8.1975556165"><ele>37.63</ele><time>2013-06-21T08:49:27Z</time></trkpt><trkpt lat="43.2650955766" lon="-8.1974749826"><ele>36.67</ele><time>2013-06-21T08:49:29Z</time></trkpt><trkpt lat="43.2651903760" lon="-8.1971611641"><ele>34.74</ele><time>2013-06-21T08:49:38Z</time></trkpt><trkpt lat="43.2652593590" lon="-8.1970442366"><ele>35.23</ele><time>2013-06-21T08:49:48Z</time></trkpt><trkpt lat="43.2652661484" lon="-8.1970414706"><ele>35.23</ele><time>2013-06-21T08:50:01Z</time></trkpt><trkpt lat="43.2652642205" lon="-8.1970400456"><ele>34.74</ele><time>2013-06-21T08:50:11Z</time></trkpt><trkpt lat="43.2652851753" lon="-8.1970370281"><ele>35.23</ele><time>2013-06-21T08:50:21Z</time></trkpt><trkpt lat="43.2652891986" lon="-8.1970351003"><ele>35.71</ele><time>2013-06-21T08:50:26Z</time></trkpt><trkpt lat="43.2652979158" lon="-8.1970419735"><ele>34.74</ele><time>2013-06-21T08:50:28Z</time></trkpt><trkpt lat="43.2653805614" lon="-8.1969997287"><ele>35.23</ele><time>2013-06-21T08:50:37Z</time></trkpt><trkpt lat="43.2654182799" lon="-8.1969547179"><ele>35.23</ele><time>2013-06-21T08:50:41Z</time></trkpt><trkpt lat="43.2654275000" lon="-8.1969035883"><ele>36.19</ele><time>2013-06-21T08:50:45Z</time></trkpt><trkpt lat="43.2654645480" lon="-8.1967142411"><ele>40.03</ele><time>2013-06-21T08:50:57Z</time></trkpt><trkpt lat="43.2654896937" lon="-8.1965512969"><ele>41.47</ele><time>2013-06-21T08:51:07Z</time></trkpt><trkpt lat="43.2654643804" lon="-8.1964908633"><ele>41.95</ele><time>2013-06-21T08:51:11Z</time></trkpt><trkpt lat="43.2654083893" lon="-8.1963869277"><ele>39.55</ele><time>2013-06-21T08:51:15Z</time></trkpt><trkpt lat="43.2653368916" lon="-8.1963534001"><ele>38.11</ele><time>2013-06-21T08:51:17Z</time></trkpt><trkpt lat="43.2651796471" lon="-8.1959679164"><ele>38.59</ele><time>2013-06-21T08:51:26Z</time></trkpt><trkpt lat="43.2649844326" lon="-8.1957152020"><ele>38.11</ele><time>2013-06-21T08:51:38Z</time></trkpt><trkpt lat="43.2647046447" lon="-8.1953478232"><ele>38.11</ele><time>2013-06-21T08:51:53Z</time></trkpt><trkpt lat="43.2644943427" lon="-8.1947934441"><ele>39.07</ele><time>2013-06-21T08:52:08Z</time></trkpt><trkpt lat="43.2645527646" lon="-8.1943532266"><ele>40.03</ele><time>2013-06-21T08:52:20Z</time></trkpt><trkpt lat="43.2646598015" lon="-8.1936723646"><ele>38.59</ele><time>2013-06-21T08:52:33Z</time></trkpt><trkpt lat="43.2647383399" lon="-8.1930138823"><ele>38.59</ele><time>2013-06-21T08:52:46Z</time></trkpt><trkpt lat="43.2648129389" lon="-8.1924611796"><ele>38.59</ele><time>2013-06-21T08:52:57Z</time></trkpt><trkpt lat="43.2647205703" lon="-8.1923387200"><ele>36.67</ele><time>2013-06-21T08:53:00Z</time></trkpt><trkpt lat="43.2646710332" lon="-8.1923273206"><ele>36.67</ele><time>2013-06-21T08:53:01Z</time></trkpt><trkpt lat="43.2643895689" lon="-8.1922334433"><ele>38.11</ele><time>2013-06-21T08:53:12Z</time></trkpt><trkpt lat="43.2643802650" lon="-8.1921745185"><ele>39.07</ele><time>2013-06-21T08:53:15Z</time></trkpt><trkpt lat="43.2643642556" lon="-8.1919867638"><ele>42.44</ele><time>2013-06-21T08:53:27Z</time></trkpt><trkpt lat="43.2643510960" lon="-8.1919492129"><ele>42.92</ele><time>2013-06-21T08:53:30Z</time></trkpt><trkpt lat="43.2643609028" lon="-8.1918594427"><ele>44.36</ele><time>2013-06-21T08:53:36Z</time></trkpt><trkpt lat="43.2643492520" lon="-8.1918226462"><ele>45.32</ele><time>2013-06-21T08:53:39Z</time></trkpt><trkpt lat="43.2643498387" lon="-8.1917396653"><ele>46.76</ele><time>2013-06-21T08:53:45Z</time></trkpt><trkpt lat="43.2643450610" lon="-8.1916547567"><ele>48.20</ele><time>2013-06-21T08:53:51Z</time></trkpt><trkpt lat="43.2643497549" lon="-8.1916260067"><ele>48.68</ele><time>2013-06-21T08:53:53Z</time></trkpt><trkpt lat="43.2643293869" lon="-8.1916154455"><ele>49.16</ele><time>2013-06-21T08:53:55Z</time></trkpt><trkpt lat="43.2643155567" lon="-8.1915678363"><ele>50.13</ele><time>2013-06-21T08:53:59Z</time></trkpt><trkpt lat="43.2642392814" lon="-8.1914176326"><ele>53.01</ele><time>2013-06-21T08:54:13Z</time></trkpt><trkpt lat="43.2642714679" lon="-8.1912597176"><ele>55.89</ele><time>2013-06-21T08:54:25Z</time></trkpt><trkpt lat="43.2642847952" lon="-8.1912355777"><ele>55.89</ele><time>2013-06-21T08:54:27Z</time></trkpt><trkpt lat="43.2643280458" lon="-8.1911604758"><ele>56.37</ele><time>2013-06-21T08:54:30Z</time></trkpt><trkpt lat="43.2644049916" lon="-8.1909555383"><ele>59.74</ele><time>2013-06-21T08:54:44Z</time></trkpt><trkpt lat="43.2643921673" lon="-8.1908108667"><ele>63.10</ele><time>2013-06-21T08:54:57Z</time></trkpt><trkpt lat="43.2643848751" lon="-8.1907724775"><ele>63.10</ele><time>2013-06-21T08:54:59Z</time></trkpt><trkpt lat="43.2643503416" lon="-8.1906350143"><ele>64.55</ele><time>2013-06-21T08:55:07Z</time></trkpt><trkpt lat="43.2642684504" lon="-8.1903654523"><ele>65.99</ele><time>2013-06-21T08:55:20Z</time></trkpt><trkpt lat="43.2642056700" lon="-8.1901538931"><ele>67.91</ele><time>2013-06-21T08:55:33Z</time></trkpt><trkpt lat="43.2641691249" lon="-8.1899382267"><ele>69.83</ele><time>2013-06-21T08:55:46Z</time></trkpt><trkpt lat="43.2641652692" lon="-8.1898481213"><ele>70.79</ele><time>2013-06-21T08:55:51Z</time></trkpt><trkpt lat="43.2641521934" lon="-8.1897895318"><ele>71.76</ele><time>2013-06-21T08:55:54Z</time></trkpt><trkpt lat="43.2641397044" lon="-8.1895867735"><ele>73.68</ele><time>2013-06-21T08:56:06Z</time></trkpt><trkpt lat="43.2641250361" lon="-8.1894796528"><ele>75.12</ele><time>2013-06-21T08:56:13Z</time></trkpt><trkpt lat="43.2640814502" lon="-8.1894394197"><ele>76.08</ele><time>2013-06-21T08:56:17Z</time></trkpt><trkpt lat="43.2640132215" lon="-8.1894284394"><ele>76.56</ele><time>2013-06-21T08:56:22Z</time></trkpt><trkpt lat="43.2638532110" lon="-8.1893545110"><ele>79.93</ele><time>2013-06-21T08:56:37Z</time></trkpt><trkpt lat="43.2636605948" lon="-8.1893271860"><ele>82.81</ele><time>2013-06-21T08:56:53Z</time></trkpt><trkpt lat="43.2635054458" lon="-8.1892722007"><ele>86.18</ele><time>2013-06-21T08:57:07Z</time></trkpt><trkpt lat="43.2632982451" lon="-8.1892282795"><ele>87.62</ele><time>2013-06-21T08:57:24Z</time></trkpt><trkpt lat="43.2631870173" lon="-8.1892582867"><ele>89.06</ele><time>2013-06-21T08:57:33Z</time></trkpt><trkpt lat="43.2629261725" lon="-8.1894404255"><ele>91.94</ele><time>2013-06-21T08:57:51Z</time></trkpt><trkpt lat="43.2626861148" lon="-8.1895469595"><ele>94.83</ele><time>2013-06-21T08:58:06Z</time></trkpt><trkpt lat="43.2626566105" lon="-8.1895651482"><ele>94.83</ele><time>2013-06-21T08:58:08Z</time></trkpt><trkpt lat="43.2623395231" lon="-8.1896047108"><ele>94.83</ele><time>2013-06-21T08:58:23Z</time></trkpt><trkpt lat="43.2623022236" lon="-8.1896024477"><ele>93.87</ele><time>2013-06-21T08:58:24Z</time></trkpt><trkpt lat="43.2621387765" lon="-8.1893003639"><ele>90.50</ele><time>2013-06-21T08:58:29Z</time></trkpt><trkpt lat="43.2620886527" lon="-8.1891010422"><ele>88.58</ele><time>2013-06-21T08:58:31Z</time></trkpt><trkpt lat="43.2617712300" lon="-8.1888660975"><ele>86.66</ele><time>2013-06-21T08:58:37Z</time></trkpt><trkpt lat="43.2617350202" lon="-8.1888967752"><ele>87.14</ele><time>2013-06-21T08:58:38Z</time></trkpt><trkpt lat="43.2614468504" lon="-8.1894182973"><ele>89.54</ele><time>2013-06-21T08:58:52Z</time></trkpt><trkpt lat="43.2614151668" lon="-8.1895580236"><ele>93.39</ele><time>2013-06-21T08:58:59Z</time></trkpt><trkpt lat="43.2615155820" lon="-8.1897341274"><ele>95.31</ele><time>2013-06-21T08:59:11Z</time></trkpt><trkpt lat="43.2616250496" lon="-8.1898606941"><ele>98.19</ele><time>2013-06-21T08:59:24Z</time></trkpt><trkpt lat="43.2616510335" lon="-8.1899037771"><ele>98.19</ele><time>2013-06-21T08:59:36Z</time></trkpt><trkpt lat="43.2616530452" lon="-8.1899044476"><ele>98.19</ele><time>2013-06-21T09:00:10Z</time></trkpt><trkpt lat="43.2616530452" lon="-8.1899044476"><ele>98.19</ele><time>2013-06-21T09:00:43Z</time></trkpt><trkpt lat="43.2616517041" lon="-8.1899037771"><ele>98.19</ele><time>2013-06-21T09:01:14Z</time></trkpt><trkpt lat="43.2616532128" lon="-8.1899055373"><ele>98.19</ele><time>2013-06-21T09:01:50Z</time></trkpt><trkpt lat="43.2616500277" lon="-8.1899054535"><ele>98.19</ele><time>2013-06-21T09:02:18Z</time></trkpt><trkpt lat="43.2616534643" lon="-8.1899140868"><ele>99.15</ele><time>2013-06-21T09:02:31Z</time></trkpt><trkpt lat="43.2616789453" lon="-8.1899365503"><ele>99.63</ele><time>2013-06-21T09:02:36Z</time></trkpt><trkpt lat="43.2617280632" lon="-8.1900436711"><ele>101.08</ele><time>2013-06-21T09:02:44Z</time></trkpt><trkpt lat="43.2617669553" lon="-8.1902068667"><ele>103.48</ele><time>2013-06-21T09:02:56Z</time></trkpt><trkpt lat="43.2617356908" lon="-8.1903227046"><ele>105.40</ele><time>2013-06-21T09:03:05Z</time></trkpt><trkpt lat="43.2617120538" lon="-8.1903730799"><ele>106.36</ele><time>2013-06-21T09:03:09Z</time></trkpt><trkpt lat="43.2616947033" lon="-8.1903929450"><ele>106.36</ele><time>2013-06-21T09:03:11Z</time></trkpt><trkpt lat="43.2616843097" lon="-8.1904092059"><ele>106.84</ele><time>2013-06-21T09:03:13Z</time></trkpt><trkpt lat="43.2615470141" lon="-8.1905517820"><ele>109.73</ele><time>2013-06-21T09:03:28Z</time></trkpt><trkpt lat="43.2614742592" lon="-8.1906786840"><ele>112.13</ele><time>2013-06-21T09:03:39Z</time></trkpt><trkpt lat="43.2613602653" lon="-8.1908102799"><ele>114.53</ele><time>2013-06-21T09:03:53Z</time></trkpt><trkpt lat="43.2613504585" lon="-8.1908189971"><ele>114.53</ele><time>2013-06-21T09:03:54Z</time></trkpt><trkpt lat="43.2612833194" lon="-8.1909113657"><ele>115.98</ele><time>2013-06-21T09:04:01Z</time></trkpt><trkpt lat="43.2611404080" lon="-8.1910515111"><ele>117.90</ele><time>2013-06-21T09:04:12Z</time></trkpt><trkpt lat="43.2609474566" lon="-8.1912436243"><ele>120.78</ele><time>2013-06-21T09:04:28Z</time></trkpt><trkpt lat="43.2607299462" lon="-8.1914547645"><ele>123.19</ele><time>2013-06-21T09:04:44Z</time></trkpt><trkpt lat="43.2605151180" lon="-8.1916345563"><ele>126.07</ele><time>2013-06-21T09:04:59Z</time></trkpt><trkpt lat="43.2602909021" lon="-8.1917928904"><ele>128.47</ele><time>2013-06-21T09:05:15Z</time></trkpt><trkpt lat="43.2601060811" lon="-8.1919227261"><ele>130.88</ele><time>2013-06-21T09:05:28Z</time></trkpt><trkpt lat="43.2600237709" lon="-8.1919832435"><ele>131.84</ele><time>2013-06-21T09:05:34Z</time></trkpt><trkpt lat="43.2598155644" lon="-8.1921485346"><ele>135.20</ele><time>2013-06-21T09:05:49Z</time></trkpt><trkpt lat="43.2597709727" lon="-8.1921688188"><ele>135.68</ele><time>2013-06-21T09:05:52Z</time></trkpt><trkpt lat="43.2597242855" lon="-8.1922063697"><ele>136.64</ele><time>2013-06-21T09:05:56Z</time></trkpt><trkpt lat="43.2595415600" lon="-8.1923624408"><ele>139.53</ele><time>2013-06-21T09:06:10Z</time></trkpt><trkpt lat="43.2594980579" lon="-8.1923858263"><ele>140.49</ele><time>2013-06-21T09:06:13Z</time></trkpt><trkpt lat="43.2593758497" lon="-8.1924916897"><ele>142.89</ele><time>2013-06-21T09:06:24Z</time></trkpt><trkpt lat="43.2592822239" lon="-8.1926018279"><ele>144.82</ele><time>2013-06-21T09:06:32Z</time></trkpt><trkpt lat="43.2591116522" lon="-8.1926826295"><ele>147.22</ele><time>2013-06-21T09:06:42Z</time></trkpt><trkpt lat="43.2589434274" lon="-8.1929435581"><ele>148.18</ele><time>2013-06-21T09:06:58Z</time></trkpt><trkpt lat="43.2589016855" lon="-8.1929790974"><ele>147.22</ele><time>2013-06-21T09:07:01Z</time></trkpt><trkpt lat="43.2587736100" lon="-8.1930561271"><ele>148.18</ele><time>2013-06-21T09:07:07Z</time></trkpt><trkpt lat="43.2583932392" lon="-8.1931790896"><ele>148.66</ele><time>2013-06-21T09:07:19Z</time></trkpt><trkpt lat="43.2581953425" lon="-8.1933658384"><ele>152.03</ele><time>2013-06-21T09:07:30Z</time></trkpt><trkpt lat="43.2579792570" lon="-8.1936934032"><ele>153.95</ele><time>2013-06-21T09:07:41Z</time></trkpt><trkpt lat="43.2576676179" lon="-8.1942684017"><ele>156.83</ele><time>2013-06-21T09:07:57Z</time></trkpt><trkpt lat="43.2574451622" lon="-8.1944942940"><ele>159.72</ele><time>2013-06-21T09:08:06Z</time></trkpt><trkpt lat="43.2573577389" lon="-8.1945491955"><ele>161.64</ele><time>2013-06-21T09:08:10Z</time></trkpt><trkpt lat="43.2570853271" lon="-8.1946089584"><ele>164.52</ele><time>2013-06-21T09:08:26Z</time></trkpt><trkpt lat="43.2570546493" lon="-8.1946279015"><ele>165.00</ele><time>2013-06-21T09:08:28Z</time></trkpt><trkpt lat="43.2569963951" lon="-8.1946965493"><ele>165.96</ele><time>2013-06-21T09:08:33Z</time></trkpt><trkpt lat="43.2569601852" lon="-8.1947496906"><ele>166.45</ele><time>2013-06-21T09:08:37Z</time></trkpt><trkpt lat="43.2568609435" lon="-8.1950209290"><ele>170.29</ele><time>2013-06-21T09:08:52Z</time></trkpt><trkpt lat="43.2567057107" lon="-8.1951709650"><ele>173.17</ele><time>2013-06-21T09:09:04Z</time></trkpt><trkpt lat="43.2564439438" lon="-8.1951404549"><ele>174.62</ele><time>2013-06-21T09:09:20Z</time></trkpt><trkpt lat="43.2561428659" lon="-8.1950951926"><ele>176.06</ele><time>2013-06-21T09:09:37Z</time></trkpt><trkpt lat="43.2560863718" lon="-8.1950776745"><ele>176.54</ele><time>2013-06-21T09:09:40Z</time></trkpt><trkpt lat="43.2560160477" lon="-8.1950677000"><ele>176.54</ele><time>2013-06-21T09:09:44Z</time></trkpt><trkpt lat="43.2557857130" lon="-8.1948228646"><ele>178.46</ele><time>2013-06-21T09:10:00Z</time></trkpt><trkpt lat="43.2557494193" lon="-8.1947693042"><ele>178.94</ele><time>2013-06-21T09:10:15Z</time></trkpt><trkpt lat="43.2557494193" lon="-8.1947688852"><ele>178.46</ele><time>2013-06-21T09:10:47Z</time></trkpt><trkpt lat="43.2557494193" lon="-8.1947688852"><ele>178.46</ele><time>2013-06-21T09:11:16Z</time></trkpt><trkpt lat="43.2557501737" lon="-8.1947578210"><ele>178.46</ele><time>2013-06-21T09:11:20Z</time></trkpt><trkpt lat="43.2557618245" lon="-8.1945675518"><ele>177.02</ele><time>2013-06-21T09:11:24Z</time></trkpt><trkpt lat="43.2557776663" lon="-8.1942892727"><ele>174.14</ele><time>2013-06-21T09:11:27Z</time></trkpt><trkpt lat="43.2558862958" lon="-8.1940349657"><ele>172.69</ele><time>2013-06-21T09:11:30Z</time></trkpt><trkpt lat="43.2559965178" lon="-8.1939039566"><ele>171.73</ele><time>2013-06-21T09:11:32Z</time></trkpt><trkpt lat="43.2561851107" lon="-8.1934562791"><ele>168.37</ele><time>2013-06-21T09:11:37Z</time></trkpt><trkpt lat="43.2563835941" lon="-8.1927734055"><ele>164.04</ele><time>2013-06-21T09:11:43Z</time></trkpt><trkpt lat="43.2563883718" lon="-8.1924537197"><ele>161.16</ele><time>2013-06-21T09:11:46Z</time></trkpt><trkpt lat="43.2563758828" lon="-8.1921597663"><ele>158.27</ele><time>2013-06-21T09:11:49Z</time></trkpt><trkpt lat="43.2563519105" lon="-8.1916628871"><ele>153.47</ele><time>2013-06-21T09:11:53Z</time></trkpt><trkpt lat="43.2564152777" lon="-8.1912454683"><ele>150.10</ele><time>2013-06-21T09:11:57Z</time></trkpt><trkpt lat="43.2564774714" lon="-8.1905700546"><ele>146.26</ele><time>2013-06-21T09:12:03Z</time></trkpt><trkpt lat="43.2565197162" lon="-8.1903513707"><ele>144.82</ele><time>2013-06-21T09:12:05Z</time></trkpt><trkpt lat="43.2566741109" lon="-8.1897470355"><ele>140.97</ele><time>2013-06-21T09:12:10Z</time></trkpt><trkpt lat="43.2566638850" lon="-8.1892979331"><ele>138.57</ele><time>2013-06-21T09:12:14Z</time></trkpt><trkpt lat="43.2564472966" lon="-8.1889011338"><ele>134.24</ele><time>2013-06-21T09:12:19Z</time></trkpt><trkpt lat="43.2563660759" lon="-8.1888544466"><ele>133.28</ele><time>2013-06-21T09:12:20Z</time></trkpt><trkpt lat="43.2561742142" lon="-8.1887900736"><ele>130.88</ele><time>2013-06-21T09:12:22Z</time></trkpt><trkpt lat="43.2557939272" lon="-8.1885630917"><ele>125.11</ele><time>2013-06-21T09:12:26Z</time></trkpt><trkpt lat="43.2554977108" lon="-8.1883796956"><ele>121.74</ele><time>2013-06-21T09:12:29Z</time></trkpt><trkpt lat="43.2553993072" lon="-8.1883167475"><ele>120.30</ele><time>2013-06-21T09:12:30Z</time></trkpt><trkpt lat="43.2549673878" lon="-8.1878759433"><ele>119.82</ele><time>2013-06-21T09:12:35Z</time></trkpt><trkpt lat="43.2546522282" lon="-8.1873496436"><ele>119.82</ele><time>2013-06-21T09:12:43Z</time></trkpt><trkpt lat="43.2546445169" lon="-8.1872908026"><ele>119.34</ele><time>2013-06-21T09:12:54Z</time></trkpt><trkpt lat="43.2546346262" lon="-8.1869776547"><ele>117.42</ele><time>2013-06-21T09:13:02Z</time></trkpt><trkpt lat="43.2545873523" lon="-8.1865807716"><ele>114.53</ele><time>2013-06-21T09:13:07Z</time></trkpt><trkpt lat="43.2544078119" lon="-8.1861998979"><ele>109.25</ele><time>2013-06-21T09:13:12Z</time></trkpt><trkpt lat="43.2542744558" lon="-8.1860387977"><ele>105.88</ele><time>2013-06-21T09:13:14Z</time></trkpt><trkpt lat="43.2539626490" lon="-8.1857507955"><ele>100.60</ele><time>2013-06-21T09:13:18Z</time></trkpt><trkpt lat="43.2538628206" lon="-8.1856373884"><ele>99.63</ele><time>2013-06-21T09:13:20Z</time></trkpt><trkpt lat="43.2538297120" lon="-8.1855653878"><ele>99.63</ele><time>2013-06-21T09:13:24Z</time></trkpt><trkpt lat="43.2538004592" lon="-8.1855412479"><ele>99.15</ele><time>2013-06-21T09:13:26Z</time></trkpt><trkpt lat="43.2536383532" lon="-8.1853777170"><ele>101.08</ele><time>2013-06-21T09:13:38Z</time></trkpt><trkpt lat="43.2536099385" lon="-8.1853494700"><ele>101.08</ele><time>2013-06-21T09:13:40Z</time></trkpt><trkpt lat="43.2533939369" lon="-8.1851392519"><ele>102.52</ele><time>2013-06-21T09:13:52Z</time></trkpt><trkpt lat="43.2531081140" lon="-8.1849462166"><ele>99.15</ele><time>2013-06-21T09:14:01Z</time></trkpt><trkpt lat="43.2529953774" lon="-8.1848717015"><ele>95.79</ele><time>2013-06-21T09:14:05Z</time></trkpt><trkpt lat="43.2529658731" lon="-8.1848642416"><ele>95.31</ele><time>2013-06-21T09:14:06Z</time></trkpt><trkpt lat="43.2527794596" lon="-8.1847816799"><ele>92.42</ele><time>2013-06-21T09:14:17Z</time></trkpt><trkpt lat="43.2527407352" lon="-8.1847520918"><ele>92.90</ele><time>2013-06-21T09:14:26Z</time></trkpt><trkpt lat="43.2526191138" lon="-8.1847107690"><ele>90.98</ele><time>2013-06-21T09:14:38Z</time></trkpt><trkpt lat="43.2524888590" lon="-8.1846821867"><ele>89.06</ele><time>2013-06-21T09:14:43Z</time></trkpt><trkpt lat="43.2523727696" lon="-8.1846657582"><ele>87.62</ele><time>2013-06-21T09:14:47Z</time></trkpt><trkpt lat="43.2521416806" lon="-8.1846595556"><ele>83.77</ele><time>2013-06-21T09:14:56Z</time></trkpt><trkpt lat="43.2518579531" lon="-8.1846927479"><ele>81.37</ele><time>2013-06-21T09:15:04Z</time></trkpt><trkpt lat="43.2517246809" lon="-8.1846790854"><ele>78.00</ele><time>2013-06-21T09:15:10Z</time></trkpt><trkpt lat="43.2517059892" lon="-8.1846766546"><ele>77.52</ele><time>2013-06-21T09:15:11Z</time></trkpt><trkpt lat="43.2515934203" lon="-8.1847096793"><ele>73.20</ele><time>2013-06-21T09:15:15Z</time></trkpt><trkpt lat="43.2515520975" lon="-8.1847271137"><ele>72.24</ele><time>2013-06-21T09:15:16Z</time></trkpt><trkpt lat="43.2514605671" lon="-8.1848021317"><ele>72.24</ele><time>2013-06-21T09:15:20Z</time></trkpt><trkpt lat="43.2514016423" lon="-8.1849541795"><ele>70.79</ele><time>2013-06-21T09:15:26Z</time></trkpt><trkpt lat="43.2513645105" lon="-8.1850333046"><ele>69.83</ele><time>2013-06-21T09:15:29Z</time></trkpt><trkpt lat="43.2512866426" lon="-8.1851164531"><ele>69.35</ele><time>2013-06-21T09:15:36Z</time></trkpt><trkpt lat="43.2512224372" lon="-8.1850119308"><ele>68.87</ele><time>2013-06-21T09:15:38Z</time></trkpt><trkpt lat="43.2510347664" lon="-8.1849053130"><ele>66.95</ele><time>2013-06-21T09:15:46Z</time></trkpt><trkpt lat="43.2509560604" lon="-8.1848915666"><ele>66.47</ele><time>2013-06-21T09:15:49Z</time></trkpt><trkpt lat="43.2508783601" lon="-8.1849043909"><ele>66.95</ele><time>2013-06-21T09:15:53Z</time></trkpt><trkpt lat="43.2508662902" lon="-8.1849139463"><ele>67.43</ele><time>2013-06-21T09:15:54Z</time></trkpt><trkpt lat="43.2507289946" lon="-8.1850393396"><ele>68.39</ele><time>2013-06-21T09:15:59Z</time></trkpt><trkpt lat="43.2504950557" lon="-8.1851191353"><ele>65.03</ele><time>2013-06-21T09:16:07Z</time></trkpt><trkpt lat="43.2503438462" lon="-8.1852065586"><ele>64.07</ele><time>2013-06-21T09:16:12Z</time></trkpt><trkpt lat="43.2501241565" lon="-8.1854253262"><ele>62.14</ele><time>2013-06-21T09:16:24Z</time></trkpt><trkpt lat="43.2500358950" lon="-8.1854957342"><ele>64.55</ele><time>2013-06-21T09:16:31Z</time></trkpt><trkpt lat="43.2499817479" lon="-8.1855163537"><ele>65.03</ele><time>2013-06-21T09:16:33Z</time></trkpt><trkpt lat="43.2497550175" lon="-8.1855371408"><ele>66.47</ele><time>2013-06-21T09:16:45Z</time></trkpt><trkpt lat="43.2496999484" lon="-8.1855358835"><ele>67.43</ele><time>2013-06-21T09:16:49Z</time></trkpt><trkpt lat="43.2495397702" lon="-8.1855013501"><ele>69.83</ele><time>2013-06-21T09:17:02Z</time></trkpt><trkpt lat="43.2495232578" lon="-8.1854959019"><ele>70.31</ele><time>2013-06-21T09:17:03Z</time></trkpt><trkpt lat="43.2492674422" lon="-8.1854388211"><ele>72.24</ele><time>2013-06-21T09:17:15Z</time></trkpt><trkpt lat="43.2492407039" lon="-8.1854550820"><ele>72.72</ele><time>2013-06-21T09:17:17Z</time></trkpt><trkpt lat="43.2491651829" lon="-8.1854565069"><ele>73.20</ele><time>2013-06-21T09:17:22Z</time></trkpt><trkpt lat="43.2491103653" lon="-8.1854521483"><ele>73.20</ele><time>2013-06-21T09:17:25Z</time></trkpt><trkpt lat="43.2489348482" lon="-8.1854441855"><ele>75.12</ele><time>2013-06-21T09:17:36Z</time></trkpt><trkpt lat="43.2487428188" lon="-8.1854937226"><ele>77.52</ele><time>2013-06-21T09:17:50Z</time></trkpt><trkpt lat="43.2485768571" lon="-8.1855725124"><ele>79.93</ele><time>2013-06-21T09:18:03Z</time></trkpt><trkpt lat="43.2484403159" lon="-8.1856537331"><ele>81.37</ele><time>2013-06-21T09:18:14Z</time></trkpt><trkpt lat="43.2483913656" lon="-8.1857280806"><ele>82.81</ele><time>2013-06-21T09:18:21Z</time></trkpt><trkpt lat="43.2482650504" lon="-8.1858719978"><ele>83.77</ele><time>2013-06-21T09:18:34Z</time></trkpt><trkpt lat="43.2481508888" lon="-8.1860257220"><ele>84.25</ele><time>2013-06-21T09:18:47Z</time></trkpt><trkpt lat="43.2481106557" lon="-8.1860629376"><ele>83.77</ele><time>2013-06-21T09:18:50Z</time></trkpt><trkpt lat="43.2479579374" lon="-8.1861196831"><ele>80.89</ele><time>2013-06-21T09:18:54Z</time></trkpt><trkpt lat="43.2478524093" lon="-8.1861703098"><ele>78.48</ele><time>2013-06-21T09:18:56Z</time></trkpt><trkpt lat="43.2477365714" lon="-8.1862532906"><ele>76.56</ele><time>2013-06-21T09:18:59Z</time></trkpt><trkpt lat="43.2474648301" lon="-8.1864060927"><ele>72.72</ele><time>2013-06-21T09:19:05Z</time></trkpt><trkpt lat="43.2472856250" lon="-8.1864188332"><ele>71.27</ele><time>2013-06-21T09:19:13Z</time></trkpt><trkpt lat="43.2470992953" lon="-8.1862066034"><ele>71.27</ele><time>2013-06-21T09:19:22Z</time></trkpt><trkpt lat="43.2469746564" lon="-8.1861909293"><ele>71.76</ele><time>2013-06-21T09:19:28Z</time></trkpt><trkpt lat="43.2466970477" lon="-8.1862465851"><ele>71.27</ele><time>2013-06-21T09:19:35Z</time></trkpt><trkpt lat="43.2465449162" lon="-8.1860439107"><ele>71.27</ele><time>2013-06-21T09:19:39Z</time></trkpt><trkpt lat="43.2463244721" lon="-8.1857673079"><ele>67.43</ele><time>2013-06-21T09:19:46Z</time></trkpt><trkpt lat="43.2462216262" lon="-8.1856140867"><ele>63.58</ele><time>2013-06-21T09:19:51Z</time></trkpt><trkpt lat="43.2461461052" lon="-8.1855195388"><ele>60.70</ele><time>2013-06-21T09:19:54Z</time></trkpt><trkpt lat="43.2460669801" lon="-8.1854464486"><ele>57.82</ele><time>2013-06-21T09:19:57Z</time></trkpt><trkpt lat="43.2459235657" lon="-8.1852005236"><ele>57.82</ele><time>2013-06-21T09:20:06Z</time></trkpt><trkpt lat="43.2456446160" lon="-8.1845421251"><ele>58.30</ele><time>2013-06-21T09:20:18Z</time></trkpt><trkpt lat="43.2455577794" lon="-8.1843978725"><ele>58.78</ele><time>2013-06-21T09:20:31Z</time></trkpt><trkpt lat="43.2455576956" lon="-8.1844080985"><ele>58.78</ele><time>2013-06-21T09:20:47Z</time></trkpt><trkpt lat="43.2455738727" lon="-8.1844992936"><ele>58.30</ele><time>2013-06-21T09:20:51Z</time></trkpt><trkpt lat="43.2456084061" lon="-8.1846839469"><ele>58.30</ele><time>2013-06-21T09:20:59Z</time></trkpt><trkpt lat="43.2456828374" lon="-8.1849298719"><ele>59.26</ele><time>2013-06-21T09:21:10Z</time></trkpt><trkpt lat="43.2457101624" lon="-8.1850159541"><ele>57.34</ele><time>2013-06-21T09:21:21Z</time></trkpt><trkpt lat="43.2457101624" lon="-8.1850159541"><ele>56.86</ele><time>2013-06-21T09:21:29Z</time></trkpt><trkpt lat="43.2454380859" lon="-8.1852097437"><ele>55.41</ele><time>2013-06-21T09:21:39Z</time></trkpt><trkpt lat="43.2453636546" lon="-8.1853544153"><ele>58.78</ele><time>2013-06-21T09:21:45Z</time></trkpt><trkpt lat="43.2452548575" lon="-8.1855384819"><ele>60.22</ele><time>2013-06-21T09:21:52Z</time></trkpt><trkpt lat="43.2452114392" lon="-8.1855644658"><ele>62.14</ele><time>2013-06-21T09:21:57Z</time></trkpt><trkpt lat="43.2450523507" lon="-8.1855658069"><ele>64.07</ele><time>2013-06-21T09:22:10Z</time></trkpt><trkpt lat="43.2449457329" lon="-8.1855195388"><ele>63.10</ele><time>2013-06-21T09:22:18Z</time></trkpt><trkpt lat="43.2449603174" lon="-8.1854402460"><ele>61.18</ele><time>2013-06-21T09:22:22Z</time></trkpt><trkpt lat="43.2449653465" lon="-8.1853991747"><ele>60.22</ele><time>2013-06-21T09:22:24Z</time></trkpt><trkpt lat="43.2450515963" lon="-8.1853481289"><ele>55.89</ele><time>2013-06-21T09:22:29Z</time></trkpt><trkpt lat="43.2450821064" lon="-8.1853192113"><ele>54.93</ele><time>2013-06-21T09:22:31Z</time></trkpt><trkpt lat="43.2450893149" lon="-8.1853025313"><ele>55.41</ele><time>2013-06-21T09:22:32Z</time></trkpt><trkpt lat="43.2450609002" lon="-8.1851649005"><ele>55.41</ele><time>2013-06-21T09:22:38Z</time></trkpt><trkpt lat="43.2450168952" lon="-8.1850646529"><ele>56.37</ele><time>2013-06-21T09:22:52Z</time></trkpt><trkpt lat="43.2450168952" lon="-8.1850646529"><ele>56.86</ele><time>2013-06-21T09:23:23Z</time></trkpt><trkpt lat="43.2450181525" lon="-8.1850567739"><ele>56.37</ele><time>2013-06-21T09:23:57Z</time></trkpt><trkpt lat="43.2449882291" lon="-8.1850282755"><ele>56.86</ele><time>2013-06-21T09:24:27Z</time></trkpt><trkpt lat="43.2449882291" lon="-8.1850282755"><ele>56.86</ele><time>2013-06-21T09:24:31Z</time></trkpt><trkpt lat="43.2449805178" lon="-8.1849646568"><ele>56.86</ele><time>2013-06-21T09:24:34Z</time></trkpt><trkpt lat="43.2449892350" lon="-8.1848619785"><ele>55.89</ele><time>2013-06-21T09:24:38Z</time></trkpt><trkpt lat="43.2449903246" lon="-8.1847685203"><ele>55.89</ele><time>2013-06-21T09:24:42Z</time></trkpt><trkpt lat="43.2450090162" lon="-8.1846272852"><ele>56.37</ele><time>2013-06-21T09:24:55Z</time></trkpt><trkpt lat="43.2450731378" lon="-8.1845251098"><ele>56.37</ele><time>2013-06-21T09:25:05Z</time></trkpt><trkpt lat="43.2451040670" lon="-8.1844126247"><ele>56.37</ele><time>2013-06-21T09:25:11Z</time></trkpt><trkpt lat="43.2451632433" lon="-8.1842019036"><ele>56.37</ele><time>2013-06-21T09:25:25Z</time></trkpt><trkpt lat="43.2451923285" lon="-8.1841485947"><ele>56.37</ele><time>2013-06-21T09:25:28Z</time></trkpt><trkpt lat="43.2452106010" lon="-8.1840687152"><ele>56.37</ele><time>2013-06-21T09:25:32Z</time></trkpt><trkpt lat="43.2452385966" lon="-8.1837887596"><ele>56.37</ele><time>2013-06-21T09:25:46Z</time></trkpt><trkpt lat="43.2451996207" lon="-8.1834825687"><ele>56.86</ele><time>2013-06-21T09:25:59Z</time></trkpt><trkpt lat="43.2450442202" lon="-8.1832954008"><ele>57.34</ele><time>2013-06-21T09:26:11Z</time></trkpt><trkpt lat="43.2449503429" lon="-8.1831695046"><ele>57.34</ele><time>2013-06-21T09:26:24Z</time></trkpt><trkpt lat="43.2449433859" lon="-8.1831696723"><ele>57.34</ele><time>2013-06-21T09:26:25Z</time></trkpt><trkpt lat="43.2448055875" lon="-8.1831777189"><ele>57.34</ele><time>2013-06-21T09:26:38Z</time></trkpt><trkpt lat="43.2446824573" lon="-8.1831720192"><ele>57.82</ele><time>2013-06-21T09:26:51Z</time></trkpt><trkpt lat="43.2445339300" lon="-8.1831595302"><ele>57.34</ele><time>2013-06-21T09:27:04Z</time></trkpt><trkpt lat="43.2444310840" lon="-8.1831213925"><ele>57.34</ele><time>2013-06-21T09:27:12Z</time></trkpt><trkpt lat="43.2443647832" lon="-8.1830155291"><ele>57.34</ele><time>2013-06-21T09:27:23Z</time></trkpt><trkpt lat="43.2443688065" lon="-8.1829526648"><ele>56.86</ele><time>2013-06-21T09:27:37Z</time></trkpt><trkpt lat="43.2443791162" lon="-8.1829618849"><ele>56.37</ele><time>2013-06-21T09:27:46Z</time></trkpt><trkpt lat="43.2443211135" lon="-8.1828777306"><ele>55.89</ele><time>2013-06-21T09:27:58Z</time></trkpt><trkpt lat="43.2443210296" lon="-8.1828742940"><ele>55.41</ele><time>2013-06-21T09:28:20Z</time></trkpt><trkpt lat="43.2443218678" lon="-8.1828708574"><ele>55.41</ele><time>2013-06-21T09:28:54Z</time></trkpt><trkpt lat="43.2443218678" lon="-8.1828708574"><ele>55.41</ele><time>2013-06-21T09:29:25Z</time></trkpt><trkpt lat="43.2443297468" lon="-8.1828677561"><ele>55.41</ele><time>2013-06-21T09:29:55Z</time></trkpt><trkpt lat="43.2443297468" lon="-8.1828677561"><ele>56.37</ele><time>2013-06-21T09:30:23Z</time></trkpt><trkpt lat="43.2443299145" lon="-8.1828679238"><ele>56.37</ele><time>2013-06-21T09:30:36Z</time></trkpt><trkpt lat="43.2443299145" lon="-8.1828679238"><ele>54.93</ele><time>2013-06-21T09:30:39Z</time></trkpt><trkpt lat="43.2443299145" lon="-8.1828679238"><ele>55.41</ele><time>2013-06-21T09:31:06Z</time></trkpt><trkpt lat="43.2443464268" lon="-8.1828897167"><ele>55.41</ele><time>2013-06-21T09:31:24Z</time></trkpt><trkpt lat="43.2443217840" lon="-8.1829223223"><ele>55.89</ele><time>2013-06-21T09:31:38Z</time></trkpt><trkpt lat="43.2443284057" lon="-8.1829555985"><ele>55.89</ele><time>2013-06-21T09:31:55Z</time></trkpt><trkpt lat="43.2443362847" lon="-8.1829774752"><ele>55.89</ele><time>2013-06-21T09:32:07Z</time></trkpt><trkpt lat="43.2443573233" lon="-8.1830525771"><ele>55.41</ele><time>2013-06-21T09:32:14Z</time></trkpt><trkpt lat="43.2444032561" lon="-8.1830974203"><ele>55.41</ele><time>2013-06-21T09:32:30Z</time></trkpt><trkpt lat="43.2444993127" lon="-8.1831477117"><ele>55.89</ele><time>2013-06-21T09:32:40Z</time></trkpt><trkpt lat="43.2446283102" lon="-8.1831661519"><ele>55.89</ele><time>2013-06-21T09:32:52Z</time></trkpt><trkpt lat="43.2446206827" lon="-8.1831529923"><ele>55.41</ele><time>2013-06-21T09:33:05Z</time></trkpt><trkpt lat="43.2446806971" lon="-8.1831499748"><ele>55.89</ele><time>2013-06-21T09:33:17Z</time></trkpt><trkpt lat="43.2448370196" lon="-8.1831417605"><ele>55.89</ele><time>2013-06-21T09:33:30Z</time></trkpt><trkpt lat="43.2449013088" lon="-8.1831358094"><ele>55.89</ele><time>2013-06-21T09:33:41Z</time></trkpt><trkpt lat="43.2449152227" lon="-8.1831331272"><ele>55.89</ele><time>2013-06-21T09:33:42Z</time></trkpt><trkpt lat="43.2450100221" lon="-8.1831483822"><ele>55.41</ele><time>2013-06-21T09:33:49Z</time></trkpt><trkpt lat="43.2451203279" lon="-8.1833080575"><ele>55.41</ele><time>2013-06-21T09:34:00Z</time></trkpt><trkpt lat="43.2451681048" lon="-8.1833525654"><ele>55.41</ele><time>2013-06-21T09:34:05Z</time></trkpt><trkpt lat="43.2452104334" lon="-8.1834229734"><ele>55.41</ele><time>2013-06-21T09:34:10Z</time></trkpt><trkpt lat="43.2452359982" lon="-8.1834513042"><ele>55.41</ele><time>2013-06-21T09:34:13Z</time></trkpt><trkpt lat="43.2452648319" lon="-8.1835523900"><ele>55.41</ele><time>2013-06-21T09:34:18Z</time></trkpt><trkpt lat="43.2452518400" lon="-8.1836963911"><ele>54.93</ele><time>2013-06-21T09:34:29Z</time></trkpt><trkpt lat="43.2452638261" lon="-8.1837430783"><ele>54.93</ele><time>2013-06-21T09:34:33Z</time></trkpt><trkpt lat="43.2452291250" lon="-8.1839168351"><ele>54.93</ele><time>2013-06-21T09:34:38Z</time></trkpt><trkpt lat="43.2451428752" lon="-8.1841617543"><ele>54.93</ele><time>2013-06-21T09:34:50Z</time></trkpt><trkpt lat="43.2450812683" lon="-8.1844702084"><ele>54.93</ele><time>2013-06-21T09:35:04Z</time></trkpt><trkpt lat="43.2450759877" lon="-8.1845329050"><ele>54.45</ele><time>2013-06-21T09:35:13Z</time></trkpt><trkpt lat="43.2450729702" lon="-8.1845836993"><ele>54.93</ele><time>2013-06-21T09:35:18Z</time></trkpt><trkpt lat="43.2450541109" lon="-8.1846256927"><ele>54.45</ele><time>2013-06-21T09:35:21Z</time></trkpt><trkpt lat="43.2450503390" lon="-8.1846617348"><ele>54.45</ele><time>2013-06-21T09:35:23Z</time></trkpt><trkpt lat="43.2449927554" lon="-8.1848841067"><ele>55.41</ele><time>2013-06-21T09:35:34Z</time></trkpt><trkpt lat="43.2449783385" lon="-8.1849276926"><ele>53.97</ele><time>2013-06-21T09:35:37Z</time></trkpt><trkpt lat="43.2449738123" lon="-8.1850952469"><ele>54.45</ele><time>2013-06-21T09:35:43Z</time></trkpt><trkpt lat="43.2450284623" lon="-8.1852699257"><ele>54.93</ele><time>2013-06-21T09:35:57Z</time></trkpt><trkpt lat="43.2450060826" lon="-8.1852783076"><ele>55.89</ele><time>2013-06-21T09:36:11Z</time></trkpt><trkpt lat="43.2449562103" lon="-8.1852771342"><ele>58.78</ele><time>2013-06-21T09:36:22Z</time></trkpt><trkpt lat="43.2449254487" lon="-8.1853492185"><ele>61.18</ele><time>2013-06-21T09:36:34Z</time></trkpt><trkpt lat="43.2449273765" lon="-8.1854157709"><ele>64.07</ele><time>2013-06-21T09:36:46Z</time></trkpt><trkpt lat="43.2449291367" lon="-8.1854230631"><ele>64.07</ele><time>2013-06-21T09:36:54Z</time></trkpt><trkpt lat="43.2450066693" lon="-8.1854767911"><ele>61.66</ele><time>2013-06-21T09:37:08Z</time></trkpt><trkpt lat="43.2450066693" lon="-8.1854767911"><ele>63.58</ele><time>2013-06-21T09:37:19Z</time></trkpt><trkpt lat="43.2451439649" lon="-8.1854343787"><ele>59.74</ele><time>2013-06-21T09:37:26Z</time></trkpt><trkpt lat="43.2451984473" lon="-8.1853934750"><ele>58.78</ele><time>2013-06-21T09:37:28Z</time></trkpt><trkpt lat="43.2453132793" lon="-8.1852465402"><ele>55.41</ele><time>2013-06-21T09:37:33Z</time></trkpt><trkpt lat="43.2453417778" lon="-8.1852076482"><ele>55.41</ele><time>2013-06-21T09:37:34Z</time></trkpt><trkpt lat="43.2456142735" lon="-8.1851100828"><ele>57.82</ele><time>2013-06-21T09:37:48Z</time></trkpt><trkpt lat="43.2456389163" lon="-8.1850821711"><ele>58.30</ele><time>2013-06-21T09:37:52Z</time></trkpt><trkpt lat="43.2456061430" lon="-8.1849749666"><ele>57.82</ele><time>2013-06-21T09:38:03Z</time></trkpt><trkpt lat="43.2454935741" lon="-8.1846669316"><ele>57.82</ele><time>2013-06-21T09:38:14Z</time></trkpt><trkpt lat="43.2454658300" lon="-8.1846239325"><ele>57.82</ele><time>2013-06-21T09:38:15Z</time></trkpt><trkpt lat="43.2454422768" lon="-8.1846072525"><ele>57.34</ele><time>2013-06-21T09:38:18Z</time></trkpt><trkpt lat="43.2454782352" lon="-8.1846818514"><ele>54.93</ele><time>2013-06-21T09:38:22Z</time></trkpt><trkpt lat="43.2454827614" lon="-8.1847565342"><ele>53.97</ele><time>2013-06-21T09:38:25Z</time></trkpt><trkpt lat="43.2453747187" lon="-8.1850021239"><ele>54.45</ele><time>2013-06-21T09:38:33Z</time></trkpt><trkpt lat="43.2452810090" lon="-8.1850299519"><ele>54.45</ele><time>2013-06-21T09:38:37Z</time></trkpt><trkpt lat="43.2451718766" lon="-8.1849399302"><ele>54.45</ele><time>2013-06-21T09:38:41Z</time></trkpt><trkpt lat="43.2450911589" lon="-8.1846458931"><ele>54.93</ele><time>2013-06-21T09:38:52Z</time></trkpt><trkpt lat="43.2451202441" lon="-8.1845401973"><ele>55.41</ele><time>2013-06-21T09:39:04Z</time></trkpt><trkpt lat="43.2451458927" lon="-8.1844923366"><ele>54.93</ele><time>2013-06-21T09:39:09Z</time></trkpt><trkpt lat="43.2451771572" lon="-8.1843485031"><ele>55.41</ele><time>2013-06-21T09:39:16Z</time></trkpt><trkpt lat="43.2451353315" lon="-8.1841142289"><ele>55.41</ele><time>2013-06-21T09:39:28Z</time></trkpt><trkpt lat="43.2451507542" lon="-8.1840772647"><ele>56.37</ele><time>2013-06-21T09:39:31Z</time></trkpt><trkpt lat="43.2451668475" lon="-8.1840226147"><ele>56.37</ele><time>2013-06-21T09:39:43Z</time></trkpt><trkpt lat="43.2452230062" lon="-8.1839068606"><ele>56.86</ele><time>2013-06-21T09:39:47Z</time></trkpt><trkpt lat="43.2452073321" lon="-8.1837440841"><ele>56.37</ele><time>2013-06-21T09:39:51Z</time></trkpt><trkpt lat="43.2451277040" lon="-8.1834288407"><ele>55.41</ele><time>2013-06-21T09:40:00Z</time></trkpt><trkpt lat="43.2451707870" lon="-8.1832940597"><ele>58.78</ele><time>2013-06-21T09:40:11Z</time></trkpt><trkpt lat="43.2451755647" lon="-8.1832597777"><ele>60.22</ele><time>2013-06-21T09:40:23Z</time></trkpt><trkpt lat="43.2451685239" lon="-8.1831954047"><ele>59.74</ele><time>2013-06-21T09:40:26Z</time></trkpt><trkpt lat="43.2451448031" lon="-8.1831224822"><ele>58.78</ele><time>2013-06-21T09:40:30Z</time></trkpt><trkpt lat="43.2450391911" lon="-8.1830739509"><ele>54.45</ele><time>2013-06-21T09:40:35Z</time></trkpt><trkpt lat="43.2450192422" lon="-8.1830656528"><ele>54.45</ele><time>2013-06-21T09:40:36Z</time></trkpt><trkpt lat="43.2449364290" lon="-8.1830307841"><ele>54.93</ele><time>2013-06-21T09:40:40Z</time></trkpt><trkpt lat="43.2447998039" lon="-8.1830384955"><ele>54.93</ele><time>2013-06-21T09:40:46Z</time></trkpt><trkpt lat="43.2446610834" lon="-8.1829823367"><ele>55.41</ele><time>2013-06-21T09:40:51Z</time></trkpt><trkpt lat="43.2444247138" lon="-8.1827187259"><ele>55.41</ele><time>2013-06-21T09:41:04Z</time></trkpt><trkpt lat="43.2443542220" lon="-8.1825936679"><ele>55.41</ele><time>2013-06-21T09:41:08Z</time></trkpt><trkpt lat="43.2444152422" lon="-8.1824484933"><ele>55.41</ele><time>2013-06-21T09:41:14Z</time></trkpt><trkpt lat="43.2444216125" lon="-8.1821832061"><ele>55.89</ele><time>2013-06-21T09:41:24Z</time></trkpt><trkpt lat="43.2442393899" lon="-8.1817926094"><ele>55.89</ele><time>2013-06-21T09:41:34Z</time></trkpt><trkpt lat="43.2440884318" lon="-8.1814100593"><ele>55.89</ele><time>2013-06-21T09:41:45Z</time></trkpt><trkpt lat="43.2440585084" lon="-8.1813833211"><ele>55.89</ele><time>2013-06-21T09:41:47Z</time></trkpt><trkpt lat="43.2439482026" lon="-8.1813711673"><ele>55.89</ele><time>2013-06-21T09:41:58Z</time></trkpt><trkpt lat="43.2438436802" lon="-8.1814213749"><ele>55.41</ele><time>2013-06-21T09:42:04Z</time></trkpt><trkpt lat="43.2437639683" lon="-8.1814138312"><ele>56.37</ele><time>2013-06-21T09:42:18Z</time></trkpt><trkpt lat="43.2437065523" lon="-8.1813803874"><ele>55.89</ele><time>2013-06-21T09:42:28Z</time></trkpt><trkpt lat="43.2436237391" lon="-8.1813609414"><ele>56.37</ele><time>2013-06-21T09:42:32Z</time></trkpt><trkpt lat="43.2435188815" lon="-8.1813526433"><ele>56.37</ele><time>2013-06-21T09:42:38Z</time></trkpt><trkpt lat="43.2433998585" lon="-8.1813387293"><ele>56.37</ele><time>2013-06-21T09:42:44Z</time></trkpt><trkpt lat="43.2431480661" lon="-8.1811992545"><ele>56.37</ele><time>2013-06-21T09:42:57Z</time></trkpt><trkpt lat="43.2430152129" lon="-8.1812643819"><ele>56.37</ele><time>2013-06-21T09:43:03Z</time></trkpt><trkpt lat="43.2427432202" lon="-8.1813402381"><ele>56.86</ele><time>2013-06-21T09:43:13Z</time></trkpt><trkpt lat="43.2427106984" lon="-8.1813312694"><ele>56.86</ele><time>2013-06-21T09:43:15Z</time></trkpt><trkpt lat="43.2424699701" lon="-8.1813938823"><ele>56.86</ele><time>2013-06-21T09:43:26Z</time></trkpt><trkpt lat="43.2423527073" lon="-8.1813784596"><ele>56.86</ele><time>2013-06-21T09:43:30Z</time></trkpt><trkpt lat="43.2422745880" lon="-8.1812829059"><ele>56.86</ele><time>2013-06-21T09:43:35Z</time></trkpt><trkpt lat="43.2423162460" lon="-8.1811802275"><ele>57.34</ele><time>2013-06-21T09:43:40Z</time></trkpt><trkpt lat="43.2422077842" lon="-8.1808358990"><ele>57.34</ele><time>2013-06-21T09:43:52Z</time></trkpt><trkpt lat="43.2420426607" lon="-8.1805659179"><ele>57.34</ele><time>2013-06-21T09:44:04Z</time></trkpt><trkpt lat="43.2419007551" lon="-8.1804530974"><ele>57.34</ele><time>2013-06-21T09:44:11Z</time></trkpt><trkpt lat="43.2418244798" lon="-8.1804080866"><ele>57.34</ele><time>2013-06-21T09:44:16Z</time></trkpt><trkpt lat="43.2417746074" lon="-8.1803376786"><ele>57.82</ele><time>2013-06-21T09:44:22Z</time></trkpt><trkpt lat="43.2415543310" lon="-8.1802250259"><ele>57.82</ele><time>2013-06-21T09:44:35Z</time></trkpt><trkpt lat="43.2414835878" lon="-8.1802172307"><ele>57.34</ele><time>2013-06-21T09:44:41Z</time></trkpt><trkpt lat="43.2414411753" lon="-8.1801953539"><ele>57.34</ele><time>2013-06-21T09:44:44Z</time></trkpt><trkpt lat="43.2412760518" lon="-8.1801479124"><ele>57.34</ele><time>2013-06-21T09:44:50Z</time></trkpt><trkpt lat="43.2411209866" lon="-8.1801894028"><ele>56.86</ele><time>2013-06-21T09:44:56Z</time></trkpt><trkpt lat="43.2407579664" lon="-8.1801865529"><ele>56.86</ele><time>2013-06-21T09:45:05Z</time></trkpt><trkpt lat="43.2402361091" lon="-8.1799651869"><ele>57.34</ele><time>2013-06-21T09:45:16Z</time></trkpt><trkpt lat="43.2400699798" lon="-8.1796916854"><ele>57.82</ele><time>2013-06-21T09:45:25Z</time></trkpt><trkpt lat="43.2400983106" lon="-8.1794208661"><ele>58.30</ele><time>2013-06-21T09:45:34Z</time></trkpt><trkpt lat="43.2400222868" lon="-8.1790465303"><ele>57.82</ele><time>2013-06-21T09:45:44Z</time></trkpt><trkpt lat="43.2400177605" lon="-8.1790373102"><ele>57.82</ele><time>2013-06-21T09:45:45Z</time></trkpt><trkpt lat="43.2399359532" lon="-8.1787591148"><ele>57.82</ele><time>2013-06-21T09:45:53Z</time></trkpt><trkpt lat="43.2399174292" lon="-8.1786365714"><ele>58.30</ele><time>2013-06-21T09:45:59Z</time></trkpt><trkpt lat="43.2399181835" lon="-8.1785108428"><ele>58.30</ele><time>2013-06-21T09:46:02Z</time></trkpt><trkpt lat="43.2399217039" lon="-8.1783956755"><ele>57.82</ele><time>2013-06-21T09:46:05Z</time></trkpt><trkpt lat="43.2400094625" lon="-8.1780743133"><ele>58.78</ele><time>2013-06-21T09:46:17Z</time></trkpt><trkpt lat="43.2400094625" lon="-8.1780743133"><ele>58.78</ele><time>2013-06-21T09:46:32Z</time></trkpt><trkpt lat="43.2399952132" lon="-8.1779725570"><ele>59.74</ele><time>2013-06-21T09:46:38Z</time></trkpt><trkpt lat="43.2398626115" lon="-8.1777273025"><ele>58.78</ele><time>2013-06-21T09:46:48Z</time></trkpt><trkpt lat="43.2398115657" lon="-8.1777060963"><ele>58.78</ele><time>2013-06-21T09:46:51Z</time></trkpt><trkpt lat="43.2395978272" lon="-8.1777276378"><ele>57.82</ele><time>2013-06-21T09:47:01Z</time></trkpt><trkpt lat="43.2394552510" lon="-8.1776773464"><ele>58.30</ele><time>2013-06-21T09:47:10Z</time></trkpt><trkpt lat="43.2392467931" lon="-8.1775403861"><ele>58.30</ele><time>2013-06-21T09:47:21Z</time></trkpt><trkpt lat="43.2391977590" lon="-8.1775164977"><ele>58.78</ele><time>2013-06-21T09:47:23Z</time></trkpt><trkpt lat="43.2391149458" lon="-8.1775263883"><ele>58.78</ele><time>2013-06-21T09:47:27Z</time></trkpt><trkpt lat="43.2389995269" lon="-8.1775025837"><ele>58.78</ele><time>2013-06-21T09:47:31Z</time></trkpt><trkpt lat="43.2386494987" lon="-8.1775947008"><ele>57.82</ele><time>2013-06-21T09:47:41Z</time></trkpt><trkpt lat="43.2385998778" lon="-8.1776311621"><ele>57.82</ele><time>2013-06-21T09:47:43Z</time></trkpt><trkpt lat="43.2380693033" lon="-8.1776349340"><ele>58.30</ele><time>2013-06-21T09:47:52Z</time></trkpt><trkpt lat="43.2377927843" lon="-8.1772843190"><ele>58.78</ele><time>2013-06-21T09:48:03Z</time></trkpt><trkpt lat="43.2377833128" lon="-8.1772571616"><ele>58.78</ele><time>2013-06-21T09:48:04Z</time></trkpt><trkpt lat="43.2377953827" lon="-8.1770231389"><ele>59.26</ele><time>2013-06-21T09:48:11Z</time></trkpt><trkpt lat="43.2377657108" lon="-8.1766337156"><ele>59.74</ele><time>2013-06-21T09:48:21Z</time></trkpt><trkpt lat="43.2377724163" lon="-8.1764760520"><ele>60.22</ele><time>2013-06-21T09:48:26Z</time></trkpt><trkpt lat="43.2375630364" lon="-8.1760846172"><ele>60.70</ele><time>2013-06-21T09:48:39Z</time></trkpt><trkpt lat="43.2374210469" lon="-8.1757671107"><ele>60.22</ele><time>2013-06-21T09:48:48Z</time></trkpt><trkpt lat="43.2374255732" lon="-8.1755729858"><ele>60.22</ele><time>2013-06-21T09:48:52Z</time></trkpt><trkpt lat="43.2374107372" lon="-8.1754841376"><ele>61.18</ele><time>2013-06-21T09:48:56Z</time></trkpt><trkpt lat="43.2375093922" lon="-8.1751434971"><ele>61.66</ele><time>2013-06-21T09:49:05Z</time></trkpt><trkpt lat="43.2375142537" lon="-8.1750592589"><ele>61.18</ele><time>2013-06-21T09:49:13Z</time></trkpt><trkpt lat="43.2375028543" lon="-8.1747226417"><ele>60.70</ele><time>2013-06-21T09:49:21Z</time></trkpt><trkpt lat="43.2374685723" lon="-8.1746548321"><ele>60.70</ele><time>2013-06-21T09:49:23Z</time></trkpt><trkpt lat="43.2374203764" lon="-8.1745055504"><ele>60.22</ele><time>2013-06-21T09:49:31Z</time></trkpt><trkpt lat="43.2372011058" lon="-8.1740439590"><ele>61.18</ele><time>2013-06-21T09:49:42Z</time></trkpt><trkpt lat="43.2371028699" lon="-8.1739261933"><ele>61.66</ele><time>2013-06-21T09:49:47Z</time></trkpt><trkpt lat="43.2370154466" lon="-8.1739115249"><ele>61.66</ele><time>2013-06-21T09:49:53Z</time></trkpt><trkpt lat="43.2368808333" lon="-8.1740473118"><ele>61.18</ele><time>2013-06-21T09:50:00Z</time></trkpt><trkpt lat="43.2368053962" lon="-8.1740872934"><ele>61.18</ele><time>2013-06-21T09:50:04Z</time></trkpt><trkpt lat="43.2367685996" lon="-8.1740952563"><ele>61.18</ele><time>2013-06-21T09:50:06Z</time></trkpt><trkpt lat="43.2367039751" lon="-8.1740674283"><ele>61.66</ele><time>2013-06-21T09:50:10Z</time></trkpt><trkpt lat="43.2364597265" lon="-8.1740643270"><ele>61.66</ele><time>2013-06-21T09:50:20Z</time></trkpt><trkpt lat="43.2363303099" lon="-8.1740328949"><ele>62.14</ele><time>2013-06-21T09:50:32Z</time></trkpt><trkpt lat="43.2362090237" lon="-8.1740312185"><ele>62.14</ele><time>2013-06-21T09:50:37Z</time></trkpt><trkpt lat="43.2360776793" lon="-8.1740753073"><ele>61.66</ele><time>2013-06-21T09:50:41Z</time></trkpt><trkpt lat="43.2360302377" lon="-8.1741131097"><ele>61.66</ele><time>2013-06-21T09:50:43Z</time></trkpt><trkpt lat="43.2359518670" lon="-8.1741542649"><ele>61.18</ele><time>2013-06-21T09:50:47Z</time></trkpt><trkpt lat="43.2355972286" lon="-8.1741383392"><ele>61.18</ele><time>2013-06-21T09:50:55Z</time></trkpt><trkpt lat="43.2353711687" lon="-8.1737919152"><ele>62.62</ele><time>2013-06-21T09:51:09Z</time></trkpt><trkpt lat="43.2353573386" lon="-8.1736333296"><ele>63.58</ele><time>2013-06-21T09:51:20Z</time></trkpt><trkpt lat="43.2353573386" lon="-8.1736333296"><ele>63.58</ele><time>2013-06-21T09:51:21Z</time></trkpt><trkpt lat="43.2351663150" lon="-8.1734651048"><ele>61.66</ele><time>2013-06-21T09:51:30Z</time></trkpt><trkpt lat="43.2350555900" lon="-8.1734102033"><ele>61.18</ele><time>2013-06-21T09:51:34Z</time></trkpt><trkpt lat="43.2347723655" lon="-8.1732718181"><ele>62.62</ele><time>2013-06-21T09:51:44Z</time></trkpt><trkpt lat="43.2346929889" lon="-8.1732195988"><ele>62.62</ele><time>2013-06-21T09:51:49Z</time></trkpt><trkpt lat="43.2346112654" lon="-8.1731646135"><ele>62.14</ele><time>2013-06-21T09:52:04Z</time></trkpt><trkpt lat="43.2345030550" lon="-8.1731409766"><ele>62.62</ele><time>2013-06-21T09:52:16Z</time></trkpt><trkpt lat="43.2344738021" lon="-8.1731095444"><ele>63.10</ele><time>2013-06-21T09:52:18Z</time></trkpt><trkpt lat="43.2343772426" lon="-8.1730235461"><ele>61.66</ele><time>2013-06-21T09:52:29Z</time></trkpt><trkpt lat="43.2343335729" lon="-8.1729020923"><ele>63.58</ele><time>2013-06-21T09:52:42Z</time></trkpt><trkpt lat="43.2343419548" lon="-8.1728675589"><ele>63.10</ele><time>2013-06-21T09:52:46Z</time></trkpt><trkpt lat="43.2342593931" lon="-8.1726824865"><ele>61.66</ele><time>2013-06-21T09:52:52Z</time></trkpt><trkpt lat="43.2342293020" lon="-8.1725845858"><ele>61.66</ele><time>2013-06-21T09:52:56Z</time></trkpt><trkpt lat="43.2342375163" lon="-8.1723254174"><ele>61.66</ele><time>2013-06-21T09:53:07Z</time></trkpt><trkpt lat="43.2342521846" lon="-8.1721988507"><ele>61.66</ele><time>2013-06-21T09:53:11Z</time></trkpt><trkpt lat="43.2342847902" lon="-8.1720462162"><ele>62.14</ele><time>2013-06-21T09:53:18Z</time></trkpt><trkpt lat="43.2343577966" lon="-8.1719322223"><ele>62.62</ele><time>2013-06-21T09:53:24Z</time></trkpt><trkpt lat="43.2343709562" lon="-8.1718424521"><ele>65.51</ele><time>2013-06-21T09:53:34Z</time></trkpt><trkpt lat="43.2343870495" lon="-8.1716181524"><ele>65.03</ele><time>2013-06-21T09:53:42Z</time></trkpt><trkpt lat="43.2343950123" lon="-8.1715172343"><ele>67.91</ele><time>2013-06-21T09:53:54Z</time></trkpt><trkpt lat="43.2345319726" lon="-8.1713696290"><ele>69.83</ele><time>2013-06-21T09:54:08Z</time></trkpt><trkpt lat="43.2345721219" lon="-8.1713204272"><ele>69.83</ele><time>2013-06-21T09:54:09Z</time></trkpt><trkpt lat="43.2346500736" lon="-8.1711224467"><ele>66.95</ele><time>2013-06-21T09:54:14Z</time></trkpt><trkpt lat="43.2346655801" lon="-8.1710556429"><ele>65.99</ele><time>2013-06-21T09:54:16Z</time></trkpt><trkpt lat="43.2346951682" lon="-8.1706689857"><ele>65.03</ele><time>2013-06-21T09:54:28Z</time></trkpt><trkpt lat="43.2346809190" lon="-8.1706025172"><ele>65.51</ele><time>2013-06-21T09:54:37Z</time></trkpt><trkpt lat="43.2346613053" lon="-8.1704916246"><ele>65.99</ele><time>2013-06-21T09:54:43Z</time></trkpt><trkpt lat="43.2346351538" lon="-8.1704487931"><ele>66.95</ele><time>2013-06-21T09:54:47Z</time></trkpt><trkpt lat="43.2346375007" lon="-8.1702001859"><ele>65.99</ele><time>2013-06-21T09:54:58Z</time></trkpt><trkpt lat="43.2347388379" lon="-8.1699685939"><ele>65.99</ele><time>2013-06-21T09:55:05Z</time></trkpt><trkpt lat="43.2349389978" lon="-8.1697344873"><ele>67.91</ele><time>2013-06-21T09:55:14Z</time></trkpt><trkpt lat="43.2352266647" lon="-8.1694469880"><ele>70.79</ele><time>2013-06-21T09:55:25Z</time></trkpt><trkpt lat="43.2353913691" lon="-8.1693093572"><ele>72.24</ele><time>2013-06-21T09:55:31Z</time></trkpt><trkpt lat="43.2354668062" lon="-8.1692236941"><ele>74.64</ele><time>2013-06-21T09:55:38Z</time></trkpt><trkpt lat="43.2355123200" lon="-8.1691728998"><ele>76.08</ele><time>2013-06-21T09:55:42Z</time></trkpt><trkpt lat="43.2355746813" lon="-8.1691018213"><ele>78.00</ele><time>2013-06-21T09:55:50Z</time></trkpt><trkpt lat="43.2356858253" lon="-8.1689294893"><ele>81.37</ele><time>2013-06-21T09:56:03Z</time></trkpt><trkpt lat="43.2357740030" lon="-8.1687981449"><ele>84.25</ele><time>2013-06-21T09:56:16Z</time></trkpt><trkpt lat="43.2357806247" lon="-8.1687742565"><ele>84.25</ele><time>2013-06-21T09:56:18Z</time></trkpt><trkpt lat="43.2358713169" lon="-8.1686472706"><ele>86.66</ele><time>2013-06-21T09:56:30Z</time></trkpt><trkpt lat="43.2359889988" lon="-8.1685132440"><ele>89.54</ele><time>2013-06-21T09:56:43Z</time></trkpt><trkpt lat="43.2360677049" lon="-8.1684028544"><ele>92.90</ele><time>2013-06-21T09:56:53Z</time></trkpt><trkpt lat="43.2361299824" lon="-8.1683266629"><ele>93.87</ele><time>2013-06-21T09:56:58Z</time></trkpt><trkpt lat="43.2361578103" lon="-8.1682796404"><ele>94.83</ele><time>2013-06-21T09:57:01Z</time></trkpt><trkpt lat="43.2363148872" lon="-8.1681019440"><ele>98.19</ele><time>2013-06-21T09:57:14Z</time></trkpt><trkpt lat="43.2364295516" lon="-8.1679737847"><ele>99.63</ele><time>2013-06-21T09:57:28Z</time></trkpt><trkpt lat="43.2364295516" lon="-8.1679737847"><ele>98.67</ele><time>2013-06-21T09:57:41Z</time></trkpt><trkpt lat="43.2364295516" lon="-8.1679737847"><ele>100.11</ele><time>2013-06-21T09:57:43Z</time></trkpt><trkpt lat="43.2364256959" lon="-8.1679692585"><ele>99.63</ele><time>2013-06-21T09:58:09Z</time></trkpt><trkpt lat="43.2364256959" lon="-8.1679692585"><ele>99.63</ele><time>2013-06-21T09:58:29Z</time></trkpt><trkpt lat="43.2364455611" lon="-8.1679872796"><ele>100.11</ele><time>2013-06-21T09:58:32Z</time></trkpt><trkpt lat="43.2364704553" lon="-8.1680536643"><ele>101.08</ele><time>2013-06-21T09:58:37Z</time></trkpt><trkpt lat="43.2364737242" lon="-8.1681695860"><ele>103.00</ele><time>2013-06-21T09:58:44Z</time></trkpt><trkpt lat="43.2365025580" lon="-8.1682491302"><ele>103.96</ele><time>2013-06-21T09:58:49Z</time></trkpt><trkpt lat="43.2365531009" lon="-8.1683813967"><ele>106.84</ele><time>2013-06-21T09:59:00Z</time></trkpt><trkpt lat="43.2365582138" lon="-8.1685030181"><ele>108.29</ele><time>2013-06-21T09:59:08Z</time></trkpt><trkpt lat="43.2365748938" lon="-8.1687173434"><ele>111.17</ele><time>2013-06-21T09:59:21Z</time></trkpt><trkpt lat="43.2365831081" lon="-8.1687675510"><ele>113.09</ele><time>2013-06-21T09:59:24Z</time></trkpt><trkpt lat="43.2365804259" lon="-8.1689366139"><ele>114.53</ele><time>2013-06-21T09:59:33Z</time></trkpt><trkpt lat="43.2365831919" lon="-8.1689801160"><ele>115.01</ele><time>2013-06-21T09:59:37Z</time></trkpt><trkpt lat="43.2368005347" lon="-8.1687825546"><ele>116.94</ele><time>2013-06-21T09:59:54Z</time></trkpt><trkpt lat="43.2370483037" lon="-8.1685193628"><ele>119.82</ele><time>2013-06-21T10:00:11Z</time></trkpt><trkpt lat="43.2372246590" lon="-8.1684088055"><ele>122.71</ele><time>2013-06-21T10:00:23Z</time></trkpt><trkpt lat="43.2374287583" lon="-8.1683233939"><ele>126.07</ele><time>2013-06-21T10:00:37Z</time></trkpt><trkpt lat="43.2376123220" lon="-8.1682121661"><ele>129.43</ele><time>2013-06-21T10:00:49Z</time></trkpt><trkpt lat="43.2378195226" lon="-8.1680214778"><ele>132.32</ele><time>2013-06-21T10:01:04Z</time></trkpt><trkpt lat="43.2379602548" lon="-8.1678478047"><ele>135.20</ele><time>2013-06-21T10:01:15Z</time></trkpt><trkpt lat="43.2380180899" lon="-8.1677934062"><ele>136.64</ele><time>2013-06-21T10:01:19Z</time></trkpt><trkpt lat="43.2380724046" lon="-8.1678654905"><ele>138.09</ele><time>2013-06-21T10:01:26Z</time></trkpt><trkpt lat="43.2380632684" lon="-8.1682275049"><ele>140.97</ele><time>2013-06-21T10:01:42Z</time></trkpt><trkpt lat="43.2381056808" lon="-8.1684081350"><ele>141.93</ele><time>2013-06-21T10:01:50Z</time></trkpt><trkpt lat="43.2382161543" lon="-8.1686627772"><ele>145.30</ele><time>2013-06-21T10:02:03Z</time></trkpt><trkpt lat="43.2383569703" lon="-8.1687025074"><ele>146.74</ele><time>2013-06-21T10:02:17Z</time></trkpt><trkpt lat="43.2383713871" lon="-8.1687026750"><ele>146.74</ele><time>2013-06-21T10:02:40Z</time></trkpt><trkpt lat="43.2385512628" lon="-8.1685502920"><ele>150.10</ele><time>2013-06-21T10:02:54Z</time></trkpt><trkpt lat="43.2386529353" lon="-8.1682704203"><ele>152.99</ele><time>2013-06-21T10:03:09Z</time></trkpt><trkpt lat="43.2386629097" lon="-8.1682114117"><ele>153.47</ele><time>2013-06-21T10:03:12Z</time></trkpt><trkpt lat="43.2388368342" lon="-8.1681746151"><ele>153.95</ele><time>2013-06-21T10:03:21Z</time></trkpt><trkpt lat="43.2390968408" lon="-8.1682245713"><ele>155.39</ele><time>2013-06-21T10:03:33Z</time></trkpt><trkpt lat="43.2393105794" lon="-8.1681442726"><ele>157.31</ele><time>2013-06-21T10:03:44Z</time></trkpt><trkpt lat="43.2395679038" lon="-8.1681578513"><ele>158.75</ele><time>2013-06-21T10:03:56Z</time></trkpt><trkpt lat="43.2396732643" lon="-8.1681762077"><ele>159.24</ele><time>2013-06-21T10:03:59Z</time></trkpt><trkpt lat="43.2398039382" lon="-8.1681800634"><ele>159.72</ele><time>2013-06-21T10:04:04Z</time></trkpt><trkpt lat="43.2401726581" lon="-8.1683556642"><ele>161.64</ele><time>2013-06-21T10:04:20Z</time></trkpt><trkpt lat="43.2402385399" lon="-8.1684179418"><ele>161.64</ele><time>2013-06-21T10:04:23Z</time></trkpt><trkpt lat="43.2402684633" lon="-8.1684847455"><ele>162.12</ele><time>2013-06-21T10:04:26Z</time></trkpt><trkpt lat="43.2403113786" lon="-8.1685236376"><ele>163.08</ele><time>2013-06-21T10:04:29Z</time></trkpt><trkpt lat="43.2405148912" lon="-8.1685679778"><ele>166.45</ele><time>2013-06-21T10:04:39Z</time></trkpt><trkpt lat="43.2405301463" lon="-8.1685834005"><ele>167.89</ele><time>2013-06-21T10:04:42Z</time></trkpt><trkpt lat="43.2405484188" lon="-8.1685685646"><ele>168.37</ele><time>2013-06-21T10:04:43Z</time></trkpt><trkpt lat="43.2406045776" lon="-8.1685942132"><ele>169.33</ele><time>2013-06-21T10:04:47Z</time></trkpt><trkpt lat="43.2406402845" lon="-8.1686031818"><ele>169.81</ele><time>2013-06-21T10:04:49Z</time></trkpt><trkpt lat="43.2407992892" lon="-8.1686126534"><ele>171.73</ele><time>2013-06-21T10:05:00Z</time></trkpt><trkpt lat="43.2410823461" lon="-8.1686536409"><ele>172.21</ele><time>2013-06-21T10:05:11Z</time></trkpt><trkpt lat="43.2412534207" lon="-8.1688293256"><ele>173.17</ele><time>2013-06-21T10:05:18Z</time></trkpt><trkpt lat="43.2413214818" lon="-8.1689363625"><ele>174.62</ele><time>2013-06-21T10:05:22Z</time></trkpt><trkpt lat="43.2414475456" lon="-8.1690749992"><ele>175.58</ele><time>2013-06-21T10:05:28Z</time></trkpt><trkpt lat="43.2415063027" lon="-8.1691395398"><ele>174.62</ele><time>2013-06-21T10:05:31Z</time></trkpt><trkpt lat="43.2416317798" lon="-8.1693681981"><ele>174.62</ele><time>2013-06-21T10:05:39Z</time></trkpt><trkpt lat="43.2416460291" lon="-8.1694026478"><ele>174.62</ele><time>2013-06-21T10:05:40Z</time></trkpt><trkpt lat="43.2421175949" lon="-8.1699288636"><ele>175.58</ele><time>2013-06-21T10:05:57Z</time></trkpt><trkpt lat="43.2423900906" lon="-8.1703958195"><ele>177.50</ele><time>2013-06-21T10:06:09Z</time></trkpt><trkpt lat="43.2425663620" lon="-8.1710988097"><ele>179.90</ele><time>2013-06-21T10:06:26Z</time></trkpt><trkpt lat="43.2425544597" lon="-8.1714803539"><ele>180.38</ele><time>2013-06-21T10:06:35Z</time></trkpt><trkpt lat="43.2426062599" lon="-8.1715565454"><ele>180.87</ele><time>2013-06-21T10:06:39Z</time></trkpt><trkpt lat="43.2427800167" lon="-8.1715946831"><ele>182.79</ele><time>2013-06-21T10:06:49Z</time></trkpt><trkpt lat="43.2430094294" lon="-8.1714627519"><ele>186.15</ele><time>2013-06-21T10:06:59Z</time></trkpt><trkpt lat="43.2433044724" lon="-8.1713008136"><ele>188.08</ele><time>2013-06-21T10:07:13Z</time></trkpt><trkpt lat="43.2433576975" lon="-8.1712992210"><ele>189.52</ele><time>2013-06-21T10:07:17Z</time></trkpt><trkpt lat="43.2433799095" lon="-8.1712771766"><ele>190.00</ele><time>2013-06-21T10:07:19Z</time></trkpt><trkpt lat="43.2434571069" lon="-8.1712238677"><ele>192.88</ele><time>2013-06-21T10:07:25Z</time></trkpt><trkpt lat="43.2434595376" lon="-8.1712196767"><ele>191.92</ele><time>2013-06-21T10:07:26Z</time></trkpt><trkpt lat="43.2434989326" lon="-8.1711436529"><ele>191.92</ele><time>2013-06-21T10:07:30Z</time></trkpt><trkpt lat="43.2435537502" lon="-8.1710451655"><ele>190.00</ele><time>2013-06-21T10:07:45Z</time></trkpt><trkpt lat="43.2435541693" lon="-8.1710456684"><ele>194.32</ele><time>2013-06-21T10:07:46Z</time></trkpt><trkpt lat="43.2435504813" lon="-8.1710454170"><ele>192.40</ele><time>2013-06-21T10:08:16Z</time></trkpt><trkpt lat="43.2435504813" lon="-8.1710454170"><ele>193.36</ele><time>2013-06-21T10:08:32Z</time></trkpt><trkpt lat="43.2434887905" lon="-8.1710424833"><ele>191.92</ele><time>2013-06-21T10:08:45Z</time></trkpt><trkpt lat="43.2434519101" lon="-8.1710337661"><ele>191.92</ele><time>2013-06-21T10:08:46Z</time></trkpt><trkpt lat="43.2433949970" lon="-8.1709802058"><ele>192.88</ele><time>2013-06-21T10:08:49Z</time></trkpt><trkpt lat="43.2432884630" lon="-8.1706726737"><ele>194.32</ele><time>2013-06-21T10:08:59Z</time></trkpt><trkpt lat="43.2431117725" lon="-8.1703400798"><ele>193.36</ele><time>2013-06-21T10:09:09Z</time></trkpt><trkpt lat="43.2430218346" lon="-8.1699528359"><ele>192.88</ele><time>2013-06-21T10:09:18Z</time></trkpt><trkpt lat="43.2430411968" lon="-8.1698836014"><ele>193.36</ele><time>2013-06-21T10:09:20Z</time></trkpt><trkpt lat="43.2431270275" lon="-8.1698002852"><ele>192.88</ele><time>2013-06-21T10:09:30Z</time></trkpt><trkpt lat="43.2431285363" lon="-8.1698074099"><ele>192.88</ele><time>2013-06-21T10:09:31Z</time></trkpt><trkpt lat="43.2431501616" lon="-8.1698266882"><ele>192.88</ele><time>2013-06-21T10:09:35Z</time></trkpt><trkpt lat="43.2432260178" lon="-8.1697324757"><ele>193.84</ele><time>2013-06-21T10:09:42Z</time></trkpt><trkpt lat="43.2433151174" lon="-8.1695710402"><ele>196.73</ele><time>2013-06-21T10:09:52Z</time></trkpt><trkpt lat="43.2433272712" lon="-8.1695527676"><ele>197.21</ele><time>2013-06-21T10:09:54Z</time></trkpt><trkpt lat="43.2433727849" lon="-8.1694925018"><ele>200.57</ele><time>2013-06-21T10:10:05Z</time></trkpt><trkpt lat="43.2433747128" lon="-8.1694761571"><ele>202.49</ele><time>2013-06-21T10:10:10Z</time></trkpt><trkpt lat="43.2433952484" lon="-8.1694354210"><ele>203.46</ele><time>2013-06-21T10:10:14Z</time></trkpt><trkpt lat="43.2434064802" lon="-8.1693573855"><ele>204.90</ele><time>2013-06-21T10:10:20Z</time></trkpt><trkpt lat="43.2434609625" lon="-8.1691961177"><ele>208.26</ele><time>2013-06-21T10:10:32Z</time></trkpt><trkpt lat="43.2434477191" lon="-8.1691320799"><ele>208.74</ele><time>2013-06-21T10:10:49Z</time></trkpt><trkpt lat="43.2434248365" lon="-8.1689231191"><ele>211.15</ele><time>2013-06-21T10:11:05Z</time></trkpt><trkpt lat="43.2434569392" lon="-8.1687976420"><ele>212.59</ele><time>2013-06-21T10:11:20Z</time></trkpt><trkpt lat="43.2434680872" lon="-8.1686486118"><ele>215.47</ele><time>2013-06-21T10:11:27Z</time></trkpt><trkpt lat="43.2434437796" lon="-8.1685842387"><ele>214.51</ele><time>2013-06-21T10:11:30Z</time></trkpt><trkpt lat="43.2434878685" lon="-8.1683689076"><ele>217.40</ele><time>2013-06-21T10:11:42Z</time></trkpt><trkpt lat="43.2435331307" lon="-8.1682658102"><ele>219.32</ele><time>2013-06-21T10:11:48Z</time></trkpt><trkpt lat="43.2435747888" lon="-8.1681798957"><ele>220.76</ele><time>2013-06-21T10:11:55Z</time></trkpt><trkpt lat="43.2436388265" lon="-8.1680889521"><ele>222.20</ele><time>2013-06-21T10:12:02Z</time></trkpt><trkpt lat="43.2436519023" lon="-8.1680338830"><ele>222.68</ele><time>2013-06-21T10:12:05Z</time></trkpt><trkpt lat="43.2436574344" lon="-8.1679979246"><ele>223.16</ele><time>2013-06-21T10:12:07Z</time></trkpt><trkpt lat="43.2436936442" lon="-8.1677557714"><ele>226.05</ele><time>2013-06-21T10:12:20Z</time></trkpt><trkpt lat="43.2436355576" lon="-8.1674796715"><ele>227.01</ele><time>2013-06-21T10:12:32Z</time></trkpt><trkpt lat="43.2436056342" lon="-8.1673320662"><ele>228.93</ele><time>2013-06-21T10:12:39Z</time></trkpt><trkpt lat="43.2435375731" lon="-8.1669837981"><ele>231.33</ele><time>2013-06-21T10:12:54Z</time></trkpt><trkpt lat="43.2435235754" lon="-8.1666260585"><ele>232.30</ele><time>2013-06-21T10:13:06Z</time></trkpt><trkpt lat="43.2433368266" lon="-8.1663061213"><ele>232.30</ele><time>2013-06-21T10:13:17Z</time></trkpt><trkpt lat="43.2430477347" lon="-8.1662243977"><ele>231.33</ele><time>2013-06-21T10:13:27Z</time></trkpt><trkpt lat="43.2428875566" lon="-8.1662485376"><ele>231.81</ele><time>2013-06-21T10:13:33Z</time></trkpt><trkpt lat="43.2428300567" lon="-8.1662420835"><ele>233.26</ele><time>2013-06-21T10:13:35Z</time></trkpt><trkpt lat="43.2426139712" lon="-8.1659985054"><ele>233.74</ele><time>2013-06-21T10:13:45Z</time></trkpt><trkpt lat="43.2425350137" lon="-8.1658791471"><ele>235.66</ele><time>2013-06-21T10:13:49Z</time></trkpt><trkpt lat="43.2423812058" lon="-8.1656633969"><ele>238.06</ele><time>2013-06-21T10:14:01Z</time></trkpt><trkpt lat="43.2421909366" lon="-8.1652500853"><ele>239.02</ele><time>2013-06-21T10:14:11Z</time></trkpt><trkpt lat="43.2420864142" lon="-8.1648672838"><ele>239.51</ele><time>2013-06-21T10:14:21Z</time></trkpt><trkpt lat="43.2420163415" lon="-8.1644748431"><ele>239.02</ele><time>2013-06-21T10:14:29Z</time></trkpt><trkpt lat="43.2419355400" lon="-8.1641636230"><ele>237.58</ele><time>2013-06-21T10:14:34Z</time></trkpt><trkpt lat="43.2418524753" lon="-8.1637337152"><ele>236.14</ele><time>2013-06-21T10:14:40Z</time></trkpt><trkpt lat="43.2418238092" lon="-8.1635913905"><ele>236.14</ele><time>2013-06-21T10:14:42Z</time></trkpt><trkpt lat="43.2417806424" lon="-8.1633282825"><ele>235.66</ele><time>2013-06-21T10:14:46Z</time></trkpt><trkpt lat="43.2417412475" lon="-8.1631457247"><ele>235.66</ele><time>2013-06-21T10:14:49Z</time></trkpt><trkpt lat="43.2416925486" lon="-8.1629221793"><ele>235.18</ele><time>2013-06-21T10:14:53Z</time></trkpt><trkpt lat="43.2416727673" lon="-8.1625410542"><ele>232.78</ele><time>2013-06-21T10:14:58Z</time></trkpt><trkpt lat="43.2417423371" lon="-8.1623652857"><ele>231.33</ele><time>2013-06-21T10:15:01Z</time></trkpt><trkpt lat="43.2420295011" lon="-8.1620891858"><ele>234.22</ele><time>2013-06-21T10:15:10Z</time></trkpt><trkpt lat="43.2422719058" lon="-8.1616542488"><ele>236.62</ele><time>2013-06-21T10:15:22Z</time></trkpt><trkpt lat="43.2425605785" lon="-8.1614822522"><ele>238.06</ele><time>2013-06-21T10:15:33Z</time></trkpt><trkpt lat="43.2429779973" lon="-8.1616806518"><ele>237.58</ele><time>2013-06-21T10:15:44Z</time></trkpt><trkpt lat="43.2434716914" lon="-8.1619241461"><ele>240.47</ele><time>2013-06-21T10:15:58Z</time></trkpt><trkpt lat="43.2439058740" lon="-8.1624301616"><ele>241.91</ele><time>2013-06-21T10:16:13Z</time></trkpt><trkpt lat="43.2442379650" lon="-8.1628148071"><ele>243.35</ele><time>2013-06-21T10:16:25Z</time></trkpt><trkpt lat="43.2444601692" lon="-8.1631287932"><ele>242.39</ele><time>2013-06-21T10:16:32Z</time></trkpt><trkpt lat="43.2445848919" lon="-8.1632365845"><ele>241.91</ele><time>2013-06-21T10:16:35Z</time></trkpt><trkpt lat="43.2448431384" lon="-8.1636757124"><ele>241.43</ele><time>2013-06-21T10:16:45Z</time></trkpt><trkpt lat="43.2451341581" lon="-8.1641929597"><ele>239.51</ele><time>2013-06-21T10:16:55Z</time></trkpt><trkpt lat="43.2452455536" lon="-8.1643413194"><ele>239.02</ele><time>2013-06-21T10:16:58Z</time></trkpt><trkpt lat="43.2453696895" lon="-8.1645971350"><ele>238.06</ele><time>2013-06-21T10:17:02Z</time></trkpt><trkpt lat="43.2455418538" lon="-8.1648941897"><ele>237.10</ele><time>2013-06-21T10:17:07Z</time></trkpt><trkpt lat="43.2457169518" lon="-8.1651370972"><ele>236.62</ele><time>2013-06-21T10:17:12Z</time></trkpt><trkpt lat="43.2458676584" lon="-8.1653040648"><ele>236.62</ele><time>2013-06-21T10:17:16Z</time></trkpt><trkpt lat="43.2462270744" lon="-8.1656980142"><ele>235.18</ele><time>2013-06-21T10:17:25Z</time></trkpt><trkpt lat="43.2465899270" lon="-8.1661096495"><ele>233.74</ele><time>2013-06-21T10:17:35Z</time></trkpt><trkpt lat="43.2470909972" lon="-8.1666864920"><ele>230.85</ele><time>2013-06-21T10:17:46Z</time></trkpt><trkpt lat="43.2471497543" lon="-8.1667338498"><ele>230.37</ele><time>2013-06-21T10:17:47Z</time></trkpt><trkpt lat="43.2476435322" lon="-8.1668622606"><ele>229.41</ele><time>2013-06-21T10:17:55Z</time></trkpt><trkpt lat="43.2477649860" lon="-8.1668918487"><ele>228.45</ele><time>2013-06-21T10:17:57Z</time></trkpt><trkpt lat="43.2481693290" lon="-8.1670958642"><ele>227.01</ele><time>2013-06-21T10:18:05Z</time></trkpt><trkpt lat="43.2482613623" lon="-8.1671176571"><ele>227.01</ele><time>2013-06-21T10:18:07Z</time></trkpt><trkpt lat="43.2484805491" lon="-8.1672341656"><ele>226.05</ele><time>2013-06-21T10:18:12Z</time></trkpt><trkpt lat="43.2486245502" lon="-8.1673101056"><ele>225.57</ele><time>2013-06-21T10:18:15Z</time></trkpt><trkpt lat="43.2489855587" lon="-8.1672820263"><ele>224.12</ele><time>2013-06-21T10:18:25Z</time></trkpt><trkpt lat="43.2490330003" lon="-8.1672824454"><ele>224.12</ele><time>2013-06-21T10:18:27Z</time></trkpt><trkpt lat="43.2490176614" lon="-8.1673428789"><ele>224.12</ele><time>2013-06-21T10:18:32Z</time></trkpt><trkpt lat="43.2488802820" lon="-8.1670093630"><ele>223.64</ele><time>2013-06-21T10:18:46Z</time></trkpt><trkpt lat="43.2490102015" lon="-8.1665203627"><ele>222.68</ele><time>2013-06-21T10:18:57Z</time></trkpt><trkpt lat="43.2491733134" lon="-8.1662485376"><ele>222.20</ele><time>2013-06-21T10:19:03Z</time></trkpt><trkpt lat="43.2492872234" lon="-8.1660455279"><ele>221.72</ele><time>2013-06-21T10:19:07Z</time></trkpt><trkpt lat="43.2494808454" lon="-8.1659212243"><ele>222.20</ele><time>2013-06-21T10:19:12Z</time></trkpt><trkpt lat="43.2500040438" lon="-8.1660266686"><ele>219.80</ele><time>2013-06-21T10:19:26Z</time></trkpt><trkpt lat="43.2501171157" lon="-8.1659780536"><ele>219.80</ele><time>2013-06-21T10:19:35Z</time></trkpt><trkpt lat="43.2501171157" lon="-8.1659780536"><ele>220.76</ele><time>2013-06-21T10:20:05Z</time></trkpt><trkpt lat="43.2501171157" lon="-8.1659780536"><ele>220.28</ele><time>2013-06-21T10:20:06Z</time></trkpt><trkpt lat="43.2501158584" lon="-8.1659685820"><ele>219.80</ele><time>2013-06-21T10:20:31Z</time></trkpt><trkpt lat="43.2501539961" lon="-8.1659302767"><ele>219.80</ele><time>2013-06-21T10:20:45Z</time></trkpt><trkpt lat="43.2505255658" lon="-8.1661454402"><ele>218.36</ele><time>2013-06-21T10:20:56Z</time></trkpt><trkpt lat="43.2506005000" lon="-8.1662080530"><ele>216.91</ele><time>2013-06-21T10:20:58Z</time></trkpt><trkpt lat="43.2512122951" lon="-8.1666234601"><ele>213.55</ele><time>2013-06-21T10:21:11Z</time></trkpt><trkpt lat="43.2512661908" lon="-8.1666567363"><ele>213.07</ele><time>2013-06-21T10:21:12Z</time></trkpt><trkpt lat="43.2516223378" lon="-8.1668976322"><ele>212.11</ele><time>2013-06-21T10:21:19Z</time></trkpt><trkpt lat="43.2518309634" lon="-8.1667758431"><ele>211.63</ele><time>2013-06-21T10:21:25Z</time></trkpt><trkpt lat="43.2519380841" lon="-8.1664612703"><ele>208.26</ele><time>2013-06-21T10:21:33Z</time></trkpt><trkpt lat="43.2519558538" lon="-8.1664101407"><ele>212.59</ele><time>2013-06-21T10:21:34Z</time></trkpt><trkpt lat="43.2520602923" lon="-8.1661001779"><ele>207.30</ele><time>2013-06-21T10:21:40Z</time></trkpt><trkpt lat="43.2520775590" lon="-8.1660526525"><ele>214.03</ele><time>2013-06-21T10:21:41Z</time></trkpt><trkpt lat="43.2520936523" lon="-8.1660069712"><ele>209.70</ele><time>2013-06-21T10:21:42Z</time></trkpt><trkpt lat="43.2523601968" lon="-8.1652437150"><ele>207.78</ele><time>2013-06-21T10:21:55Z</time></trkpt><trkpt lat="43.2525197044" lon="-8.1647994742"><ele>205.38</ele><time>2013-06-21T10:22:01Z</time></trkpt><trkpt lat="43.2526275795" lon="-8.1644751783"><ele>201.05</ele><time>2013-06-21T10:22:05Z</time></trkpt><trkpt lat="43.2526567485" lon="-8.1643990707"><ele>200.57</ele><time>2013-06-21T10:22:06Z</time></trkpt><trkpt lat="43.2527285814" lon="-8.1642052811"><ele>195.77</ele><time>2013-06-21T10:22:09Z</time></trkpt><trkpt lat="43.2529905997" lon="-8.1643391401"><ele>192.40</ele><time>2013-06-21T10:22:14Z</time></trkpt><trkpt lat="43.2534924243" lon="-8.1648029108"><ele>187.11</ele><time>2013-06-21T10:22:21Z</time></trkpt><trkpt lat="43.2539587095" lon="-8.1651515141"><ele>183.75</ele><time>2013-06-21T10:22:27Z</time></trkpt><trkpt lat="43.2544669043" lon="-8.1654602196"><ele>179.42</ele><time>2013-06-21T10:22:33Z</time></trkpt><trkpt lat="43.2547305152" lon="-8.1656196434"><ele>176.54</ele><time>2013-06-21T10:22:36Z</time></trkpt><trkpt lat="43.2549684774" lon="-8.1657606270"><ele>173.17</ele><time>2013-06-21T10:22:39Z</time></trkpt><trkpt lat="43.2550247200" lon="-8.1657973398"><ele>172.69</ele><time>2013-06-21T10:22:40Z</time></trkpt><trkpt lat="43.2551620156" lon="-8.1656417716"><ele>169.33</ele><time>2013-06-21T10:22:45Z</time></trkpt><trkpt lat="43.2550045196" lon="-8.1651905738"><ele>166.45</ele><time>2013-06-21T10:22:51Z</time></trkpt><trkpt lat="43.2548988238" lon="-8.1650451478"><ele>164.52</ele><time>2013-06-21T10:22:53Z</time></trkpt><trkpt lat="43.2547793817" lon="-8.1649017334"><ele>163.56</ele><time>2013-06-21T10:22:55Z</time></trkpt><trkpt lat="43.2547331974" lon="-8.1648115441"><ele>163.08</ele><time>2013-06-21T10:22:56Z</time></trkpt><trkpt lat="43.2547023520" lon="-8.1647151522"><ele>162.60</ele><time>2013-06-21T10:22:57Z</time></trkpt><trkpt lat="43.2546913717" lon="-8.1646215264"><ele>161.64</ele><time>2013-06-21T10:22:58Z</time></trkpt><trkpt lat="43.2547701616" lon="-8.1644632760"><ele>161.16</ele><time>2013-06-21T10:23:00Z</time></trkpt><trkpt lat="43.2548392285" lon="-8.1644202769"><ele>161.16</ele><time>2013-06-21T10:23:01Z</time></trkpt><trkpt lat="43.2549124863" lon="-8.1643959694"><ele>161.64</ele><time>2013-06-21T10:23:02Z</time></trkpt><trkpt lat="43.2549858280" lon="-8.1643799599"><ele>161.64</ele><time>2013-06-21T10:23:03Z</time></trkpt><trkpt lat="43.2550554816" lon="-8.1643590052"><ele>161.16</ele><time>2013-06-21T10:23:04Z</time></trkpt><trkpt lat="43.2551178429" lon="-8.1643198617"><ele>161.16</ele><time>2013-06-21T10:23:05Z</time></trkpt><trkpt lat="43.2552860677" lon="-8.1639337074"><ele>161.64</ele><time>2013-06-21T10:23:10Z</time></trkpt><trkpt lat="43.2553611696" lon="-8.1634272728"><ele>161.16</ele><time>2013-06-21T10:23:16Z</time></trkpt><trkpt lat="43.2553562243" lon="-8.1628631707"><ele>162.60</ele><time>2013-06-21T10:23:24Z</time></trkpt><trkpt lat="43.2553109620" lon="-8.1626295671"><ele>163.08</ele><time>2013-06-21T10:23:28Z</time></trkpt><trkpt lat="43.2552973833" lon="-8.1624439918"><ele>163.56</ele><time>2013-06-21T10:23:31Z</time></trkpt><trkpt lat="43.2553081959" lon="-8.1622645352"><ele>165.48</ele><time>2013-06-21T10:23:34Z</time></trkpt><trkpt lat="43.2553247921" lon="-8.1621430814"><ele>164.04</ele><time>2013-06-21T10:23:36Z</time></trkpt><trkpt lat="43.2555689570" lon="-8.1619005091"><ele>163.56</ele><time>2013-06-21T10:23:43Z</time></trkpt><trkpt lat="43.2561193127" lon="-8.1619419996"><ele>166.93</ele><time>2013-06-21T10:23:54Z</time></trkpt><trkpt lat="43.2564766333" lon="-8.1620663870"><ele>169.81</ele><time>2013-06-21T10:24:05Z</time></trkpt><trkpt lat="43.2567752805" lon="-8.1621616054"><ele>172.69</ele><time>2013-06-21T10:24:15Z</time></trkpt><trkpt lat="43.2570682280" lon="-8.1620527245"><ele>175.10</ele><time>2013-06-21T10:24:26Z</time></trkpt><trkpt lat="43.2573229540" lon="-8.1617011037"><ele>178.46</ele><time>2013-06-21T10:24:38Z</time></trkpt><trkpt lat="43.2576316595" lon="-8.1612497382"><ele>178.46</ele><time>2013-06-21T10:24:50Z</time></trkpt><trkpt lat="43.2580648363" lon="-8.1608493347"><ele>178.94</ele><time>2013-06-21T10:25:04Z</time></trkpt><trkpt lat="43.2584596239" lon="-8.1607092731"><ele>179.90</ele><time>2013-06-21T10:25:16Z</time></trkpt><trkpt lat="43.2587885298" lon="-8.1606051698"><ele>182.79</ele><time>2013-06-21T10:25:28Z</time></trkpt><trkpt lat="43.2590104826" lon="-8.1604843028"><ele>185.19</ele><time>2013-06-21T10:25:36Z</time></trkpt><trkpt lat="43.2593331020" lon="-8.1603568979"><ele>188.08</ele><time>2013-06-21T10:25:47Z</time></trkpt><trkpt lat="43.2596372813" lon="-8.1601822190"><ele>191.44</ele><time>2013-06-21T10:25:58Z</time></trkpt><trkpt lat="43.2599891536" lon="-8.1598064583"><ele>193.84</ele><time>2013-06-21T10:26:12Z</time></trkpt><trkpt lat="43.2603239268" lon="-8.1594855152"><ele>197.21</ele><time>2013-06-21T10:26:25Z</time></trkpt><trkpt lat="43.2605203148" lon="-8.1592429429"><ele>199.13</ele><time>2013-06-21T10:26:34Z</time></trkpt><trkpt lat="43.2604945824" lon="-8.1591997761"><ele>199.61</ele><time>2013-06-21T10:26:36Z</time></trkpt><trkpt lat="43.2604597975" lon="-8.1590882130"><ele>200.09</ele><time>2013-06-21T10:26:40Z</time></trkpt><trkpt lat="43.2603938319" lon="-8.1590160448"><ele>201.53</ele><time>2013-06-21T10:26:44Z</time></trkpt><trkpt lat="43.2602118608" lon="-8.1591416057"><ele>204.90</ele><time>2013-06-21T10:26:56Z</time></trkpt><trkpt lat="43.2601935882" lon="-8.1591639854"><ele>204.90</ele><time>2013-06-21T10:26:57Z</time></trkpt><trkpt lat="43.2600460667" lon="-8.1592654064"><ele>206.34</ele><time>2013-06-21T10:27:04Z</time></trkpt><trkpt lat="43.2597433962" lon="-8.1593509857"><ele>209.22</ele><time>2013-06-21T10:27:16Z</time></trkpt><trkpt lat="43.2594057731" lon="-8.1593861897"><ele>212.59</ele><time>2013-06-21T10:27:29Z</time></trkpt><trkpt lat="43.2591286674" lon="-8.1592366565"><ele>214.99</ele><time>2013-06-21T10:27:41Z</time></trkpt><trkpt lat="43.2588804793" lon="-8.1589562818"><ele>217.40</ele><time>2013-06-21T10:27:53Z</time></trkpt><trkpt lat="43.2586022839" lon="-8.1585850473"><ele>220.28</ele><time>2013-06-21T10:28:07Z</time></trkpt><trkpt lat="43.2582810894" lon="-8.1583983824"><ele>223.64</ele><time>2013-06-21T10:28:21Z</time></trkpt><trkpt lat="43.2579210866" lon="-8.1582589075"><ele>226.53</ele><time>2013-06-21T10:28:36Z</time></trkpt><trkpt lat="43.2577811927" lon="-8.1579026766"><ele>228.93</ele><time>2013-06-21T10:28:48Z</time></trkpt><trkpt lat="43.2577749901" lon="-8.1578673050"><ele>229.41</ele><time>2013-06-21T10:28:49Z</time></trkpt><trkpt lat="43.2577502634" lon="-8.1576013472"><ele>231.33</ele><time>2013-06-21T10:28:57Z</time></trkpt><trkpt lat="43.2577394508" lon="-8.1571484730"><ele>234.22</ele><time>2013-06-21T10:29:09Z</time></trkpt><trkpt lat="43.2578179892" lon="-8.1567433756"><ele>237.10</ele><time>2013-06-21T10:29:20Z</time></trkpt><trkpt lat="43.2579639181" lon="-8.1563713867"><ele>240.47</ele><time>2013-06-21T10:29:32Z</time></trkpt><trkpt lat="43.2581200730" lon="-8.1563006435"><ele>243.35</ele><time>2013-06-21T10:29:38Z</time></trkpt><trkpt lat="43.2581458893" lon="-8.1563046668"><ele>242.87</ele><time>2013-06-21T10:29:39Z</time></trkpt><trkpt lat="43.2584303711" lon="-8.1565560400"><ele>245.75</ele><time>2013-06-21T10:29:52Z</time></trkpt><trkpt lat="43.2586986758" lon="-8.1567639951"><ele>247.20</ele><time>2013-06-21T10:30:03Z</time></trkpt><trkpt lat="43.2589461934" lon="-8.1565954350"><ele>249.60</ele><time>2013-06-21T10:30:13Z</time></trkpt><trkpt lat="43.2591896039" lon="-8.1563995499"><ele>251.52</ele><time>2013-06-21T10:30:23Z</time></trkpt><trkpt lat="43.2594191842" lon="-8.1562545430"><ele>253.93</ele><time>2013-06-21T10:30:34Z</time></trkpt><trkpt lat="43.2598466612" lon="-8.1559760123"><ele>256.81</ele><time>2013-06-21T10:30:50Z</time></trkpt><trkpt lat="43.2602105197" lon="-8.1558629405"><ele>260.17</ele><time>2013-06-21T10:31:03Z</time></trkpt><trkpt lat="43.2604465540" lon="-8.1561119668"><ele>263.06</ele><time>2013-06-21T10:31:14Z</time></trkpt><trkpt lat="43.2607602049" lon="-8.1563785113"><ele>265.46</ele><time>2013-06-21T10:31:27Z</time></trkpt><trkpt lat="43.2611347921" lon="-8.1563006435"><ele>268.35</ele><time>2013-06-21T10:31:39Z</time></trkpt><trkpt lat="43.2616349403" lon="-8.1561713945"><ele>268.83</ele><time>2013-06-21T10:31:54Z</time></trkpt><trkpt lat="43.2619294804" lon="-8.1560236216"><ele>270.27</ele><time>2013-06-21T10:32:08Z</time></trkpt><trkpt lat="43.2619257923" lon="-8.1560233701"><ele>270.27</ele><time>2013-06-21T10:32:27Z</time></trkpt><trkpt lat="43.2620840427" lon="-8.1559237931"><ele>268.83</ele><time>2013-06-21T10:32:39Z</time></trkpt><trkpt lat="43.2621257845" lon="-8.1559029222"><ele>268.35</ele><time>2013-06-21T10:32:40Z</time></trkpt><trkpt lat="43.2623183168" lon="-8.1557627767"><ele>264.50</ele><time>2013-06-21T10:32:44Z</time></trkpt><trkpt lat="43.2624820992" lon="-8.1556139141"><ele>259.69</ele><time>2013-06-21T10:32:47Z</time></trkpt><trkpt lat="43.2627240848" lon="-8.1553839147"><ele>253.44</ele><time>2013-06-21T10:32:51Z</time></trkpt><trkpt lat="43.2629722729" lon="-8.1552164443"><ele>249.60</ele><time>2013-06-21T10:32:54Z</time></trkpt><trkpt lat="43.2633685693" lon="-8.1548877899"><ele>241.91</ele><time>2013-06-21T10:32:58Z</time></trkpt><trkpt lat="43.2635522168" lon="-8.1546871271"><ele>238.06</ele><time>2013-06-21T10:33:00Z</time></trkpt><trkpt lat="43.2636242174" lon="-8.1546056550"><ele>237.10</ele><time>2013-06-21T10:33:01Z</time></trkpt><trkpt lat="43.2639821246" lon="-8.1545574591"><ele>232.78</ele><time>2013-06-21T10:33:06Z</time></trkpt><trkpt lat="43.2640526164" lon="-8.1546318065"><ele>228.45</ele><time>2013-06-21T10:33:11Z</time></trkpt><trkpt lat="43.2640383672" lon="-8.1544900686"><ele>225.09</ele><time>2013-06-21T10:33:14Z</time></trkpt><trkpt lat="43.2641476672" lon="-8.1546076667"><ele>220.76</ele><time>2013-06-21T10:33:19Z</time></trkpt><trkpt lat="43.2643049117" lon="-8.1547121890"><ele>215.95</ele><time>2013-06-21T10:33:22Z</time></trkpt><trkpt lat="43.2643813547" lon="-8.1547240075"><ele>215.95</ele><time>2013-06-21T10:33:23Z</time></trkpt><trkpt lat="43.2644631620" lon="-8.1547375023"><ele>214.99</ele><time>2013-06-21T10:33:24Z</time></trkpt><trkpt lat="43.2646929938" lon="-8.1547541823"><ele>212.59</ele><time>2013-06-21T10:33:27Z</time></trkpt><trkpt lat="43.2648496516" lon="-8.1547986064"><ele>209.22</ele><time>2013-06-21T10:33:29Z</time></trkpt><trkpt lat="43.2650656532" lon="-8.1549203955"><ele>203.46</ele><time>2013-06-21T10:33:33Z</time></trkpt><trkpt lat="43.2652081456" lon="-8.1549779791"><ele>199.61</ele><time>2013-06-21T10:33:36Z</time></trkpt><trkpt lat="43.2653518114" lon="-8.1550730299"><ele>198.17</ele><time>2013-06-21T10:33:38Z</time></trkpt><trkpt lat="43.2655474450" lon="-8.1552154385"><ele>197.21</ele><time>2013-06-21T10:33:42Z</time></trkpt><trkpt lat="43.2658240478" lon="-8.1555400696"><ele>192.88</ele><time>2013-06-21T10:33:47Z</time></trkpt><trkpt lat="43.2659881655" lon="-8.1556828972"><ele>188.56</ele><time>2013-06-21T10:33:50Z</time></trkpt><trkpt lat="43.2660511974" lon="-8.1557700690"><ele>185.19</ele><time>2013-06-21T10:33:53Z</time></trkpt><trkpt lat="43.2659512851" lon="-8.1559355278"><ele>181.83</ele><time>2013-06-21T10:33:56Z</time></trkpt><trkpt lat="43.2658444159" lon="-8.1560316682"><ele>178.94</ele><time>2013-06-21T10:33:58Z</time></trkpt><trkpt lat="43.2657285780" lon="-8.1561297365"><ele>175.58</ele><time>2013-06-21T10:34:00Z</time></trkpt><trkpt lat="43.2656843215" lon="-8.1561991386"><ele>174.14</ele><time>2013-06-21T10:34:01Z</time></trkpt><trkpt lat="43.2654937170" lon="-8.1565725524"><ele>168.37</ele><time>2013-06-21T10:34:05Z</time></trkpt><trkpt lat="43.2653571758" lon="-8.1568060722"><ele>164.04</ele><time>2013-06-21T10:34:07Z</time></trkpt><trkpt lat="43.2652010210" lon="-8.1570499018"><ele>159.72</ele><time>2013-06-21T10:34:09Z</time></trkpt><trkpt lat="43.2650106680" lon="-8.1574495509"><ele>153.47</ele><time>2013-06-21T10:34:12Z</time></trkpt><trkpt lat="43.2649848517" lon="-8.1575863436"><ele>153.47</ele><time>2013-06-21T10:34:13Z</time></trkpt><trkpt lat="43.2649597898" lon="-8.1577171013"><ele>149.62</ele><time>2013-06-21T10:34:14Z</time></trkpt><trkpt lat="43.2648963388" lon="-8.1579682231"><ele>146.26</ele><time>2013-06-21T10:34:16Z</time></trkpt><trkpt lat="43.2647449616" lon="-8.1583709735"><ele>137.61</ele><time>2013-06-21T10:34:19Z</time></trkpt><trkpt lat="43.2646953408" lon="-8.1584891584"><ele>135.68</ele><time>2013-06-21T10:34:20Z</time></trkpt><trkpt lat="43.2644381002" lon="-8.1587695330"><ele>132.32</ele><time>2013-06-21T10:34:24Z</time></trkpt><trkpt lat="43.2643849589" lon="-8.1587858777"><ele>130.40</ele><time>2013-06-21T10:34:27Z</time></trkpt><trkpt lat="43.2643866353" lon="-8.1587760709"><ele>131.36</ele><time>2013-06-21T10:34:33Z</time></trkpt><trkpt lat="43.2641463261" lon="-8.1588156335"><ele>127.51</ele><time>2013-06-21T10:34:39Z</time></trkpt><trkpt lat="43.2639375329" lon="-8.1588914059"><ele>127.99</ele><time>2013-06-21T10:34:43Z</time></trkpt><trkpt lat="43.2636116445" lon="-8.1591053121"><ele>127.51</ele><time>2013-06-21T10:34:51Z</time></trkpt><trkpt lat="43.2632716745" lon="-8.1592643168"><ele>129.92</ele><time>2013-06-21T10:35:02Z</time></trkpt><trkpt lat="43.2632387336" lon="-8.1592480559"><ele>130.88</ele><time>2013-06-21T10:35:04Z</time></trkpt><trkpt lat="43.2631567586" lon="-8.1592882052"><ele>131.84</ele><time>2013-06-21T10:35:07Z</time></trkpt><trkpt lat="43.2628434431" lon="-8.1594617944"><ele>133.76</ele><time>2013-06-21T10:35:20Z</time></trkpt><trkpt lat="43.2624986954" lon="-8.1596915424"><ele>133.76</ele><time>2013-06-21T10:35:31Z</time></trkpt><trkpt lat="43.2625038084" lon="-8.1596902013"><ele>133.76</ele><time>2013-06-21T10:35:39Z</time></trkpt><trkpt lat="43.2624976058" lon="-8.1597304344"><ele>132.32</ele><time>2013-06-21T10:35:56Z</time></trkpt><trkpt lat="43.2625013776" lon="-8.1597350445"><ele>131.36</ele><time>2013-06-21T10:35:57Z</time></trkpt><trkpt lat="43.2625040598" lon="-8.1598103978"><ele>127.99</ele><time>2013-06-21T10:36:01Z</time></trkpt><trkpt lat="43.2625937462" lon="-8.1598544028"><ele>125.11</ele><time>2013-06-21T10:36:04Z</time></trkpt><trkpt lat="43.2627363224" lon="-8.1600223761"><ele>121.26</ele><time>2013-06-21T10:36:08Z</time></trkpt><trkpt lat="43.2628447842" lon="-8.1601186004"><ele>117.42</ele><time>2013-06-21T10:36:14Z</time></trkpt><trkpt lat="43.2628659904" lon="-8.1601389684"><ele>114.53</ele><time>2013-06-21T10:36:16Z</time></trkpt><trkpt lat="43.2629182935" lon="-8.1601453386"><ele>115.01</ele><time>2013-06-21T10:36:20Z</time></trkpt><trkpt lat="43.2629906293" lon="-8.1601737533"><ele>114.53</ele><time>2013-06-21T10:36:31Z</time></trkpt><trkpt lat="43.2630377356" lon="-8.1602455862"><ele>110.21</ele><time>2013-06-21T10:36:36Z</time></trkpt><trkpt lat="43.2630578522" lon="-8.1602919381"><ele>108.77</ele><time>2013-06-21T10:36:38Z</time></trkpt><trkpt lat="43.2630627137" lon="-8.1604542956"><ele>105.88</ele><time>2013-06-21T10:36:42Z</time></trkpt><trkpt lat="43.2630803157" lon="-8.1604472548"><ele>105.40</ele><time>2013-06-21T10:36:54Z</time></trkpt><trkpt lat="43.2630860992" lon="-8.1604530383"><ele>105.88</ele><time>2013-06-21T10:37:12Z</time></trkpt><trkpt lat="43.2630861830" lon="-8.1604598276"><ele>105.88</ele><time>2013-06-21T10:37:17Z</time></trkpt><trkpt lat="43.2630898710" lon="-8.1605070177"><ele>104.92</ele><time>2013-06-21T10:37:19Z</time></trkpt><trkpt lat="43.2630150206" lon="-8.1606198382"><ele>101.08</ele><time>2013-06-21T10:37:25Z</time></trkpt><trkpt lat="43.2629928086" lon="-8.1606508512"><ele>100.11</ele><time>2013-06-21T10:37:28Z</time></trkpt><trkpt lat="43.2629928086" lon="-8.1606508512"><ele>99.15</ele><time>2013-06-21T10:37:36Z</time></trkpt><trkpt lat="43.2629611250" lon="-8.1607750710"><ele>95.31</ele><time>2013-06-21T10:37:39Z</time></trkpt><trkpt lat="43.2629548386" lon="-8.1608163938"><ele>95.31</ele><time>2013-06-21T10:37:40Z</time></trkpt><trkpt lat="43.2629508991" lon="-8.1608355884"><ele>93.87</ele><time>2013-06-21T10:37:42Z</time></trkpt><trkpt lat="43.2629343867" lon="-8.1608299725"><ele>93.87</ele><time>2013-06-21T10:37:57Z</time></trkpt><trkpt lat="43.2629224006" lon="-8.1608123705"><ele>93.87</ele><time>2013-06-21T10:38:11Z</time></trkpt><trkpt lat="43.2629088219" lon="-8.1608484965"><ele>93.87</ele><time>2013-06-21T10:38:23Z</time></trkpt><trkpt lat="43.2629437745" lon="-8.1609374285"><ele>89.06</ele><time>2013-06-21T10:38:29Z</time></trkpt><trkpt lat="43.2628971711" lon="-8.1610689405"><ele>84.73</ele><time>2013-06-21T10:38:33Z</time></trkpt><trkpt lat="43.2628554292" lon="-8.1611160468"><ele>84.73</ele><time>2013-06-21T10:38:35Z</time></trkpt><trkpt lat="43.2628967520" lon="-8.1612500735"><ele>80.89</ele><time>2013-06-21T10:38:38Z</time></trkpt><trkpt lat="43.2629084028" lon="-8.1612735428"><ele>80.89</ele><time>2013-06-21T10:38:39Z</time></trkpt><trkpt lat="43.2629778050" lon="-8.1612975989"><ele>78.48</ele><time>2013-06-21T10:38:43Z</time></trkpt><trkpt lat="43.2630128413" lon="-8.1612908933"><ele>77.52</ele><time>2013-06-21T10:38:45Z</time></trkpt><trkpt lat="43.2630249113" lon="-8.1612944137"><ele>76.08</ele><time>2013-06-21T10:38:47Z</time></trkpt><trkpt lat="43.2630531583" lon="-8.1613392569"><ele>73.68</ele><time>2013-06-21T10:38:49Z</time></trkpt><trkpt lat="43.2630850095" lon="-8.1614579447"><ele>69.83</ele><time>2013-06-21T10:38:52Z</time></trkpt><trkpt lat="43.2631456107" lon="-8.1615461223"><ele>66.47</ele><time>2013-06-21T10:38:56Z</time></trkpt><trkpt lat="43.2632322796" lon="-8.1616276782"><ele>63.58</ele><time>2013-06-21T10:39:00Z</time></trkpt><trkpt lat="43.2634290028" lon="-8.1616600323"><ele>62.62</ele><time>2013-06-21T10:39:07Z</time></trkpt><trkpt lat="43.2635279931" lon="-8.1617169455"><ele>58.30</ele><time>2013-06-21T10:39:11Z</time></trkpt><trkpt lat="43.2635771949" lon="-8.1617367268"><ele>54.93</ele><time>2013-06-21T10:39:13Z</time></trkpt><trkpt lat="43.2636440825" lon="-8.1617788877"><ele>53.01</ele><time>2013-06-21T10:39:16Z</time></trkpt><trkpt lat="43.2636821363" lon="-8.1618072186"><ele>50.61</ele><time>2013-06-21T10:39:19Z</time></trkpt><trkpt lat="43.2637496945" lon="-8.1618415006"><ele>46.76</ele><time>2013-06-21T10:39:24Z</time></trkpt><trkpt lat="43.2637552265" lon="-8.1618500501"><ele>45.80</ele><time>2013-06-21T10:39:25Z</time></trkpt><trkpt lat="43.2638140675" lon="-8.1619231403"><ele>43.40</ele><time>2013-06-21T10:39:29Z</time></trkpt><trkpt lat="43.2639193442" lon="-8.1619798858"><ele>40.03</ele><time>2013-06-21T10:39:34Z</time></trkpt><trkpt lat="43.2639962062" lon="-8.1620621961"><ele>35.71</ele><time>2013-06-21T10:39:39Z</time></trkpt><trkpt lat="43.2768903393" lon="-8.2082959358"><ele>36.19</ele><time>2013-06-21T15:41:23Z</time></trkpt><trkpt lat="43.2768910099" lon="-8.2082961034"><ele>36.19</ele><time>2013-06-21T15:41:24Z</time></trkpt><trkpt lat="43.2769112941" lon="-8.2081504259"><ele>35.23</ele><time>2013-06-21T15:41:53Z</time></trkpt><trkpt lat="43.2768805325" lon="-8.2079145592"><ele>35.71</ele><time>2013-06-21T15:42:19Z</time></trkpt><trkpt lat="43.2768903393" lon="-8.2078781817"><ele>35.23</ele><time>2013-06-21T15:42:48Z</time></trkpt><trkpt lat="43.2768910937" lon="-8.2078578975"><ele>35.23</ele><time>2013-06-21T15:43:21Z</time></trkpt><trkpt lat="43.2768973801" lon="-8.2078891620"><ele>34.74</ele><time>2013-06-21T15:43:44Z</time></trkpt><trkpt lat="43.2768977154" lon="-8.2079011481"><ele>35.23</ele><time>2013-06-21T15:44:09Z</time></trkpt><trkpt lat="43.2768988051" lon="-8.2079151459"><ele>34.74</ele><time>2013-06-21T15:44:35Z</time></trkpt></trkseg></trk></gpx>